<?xml version="1.0" encoding="UTF-8" standalone="no" ?>
<gpx xmlns="http://www.topografix.com/GPX/1/1" xmlns:xsi="http://www.w3.org/2001/XMLSchema-instance" xsi:schemaLocation="http://www.topografix.com/GPX/1/1 http://www.topografix.com/GPX/1/1/gpx.xsd" version="1.1" creator="VisuGPX - https://www.visugpx.com">
  <metadata>
    <name>DRAC HORAIRE 38-1530</name>
  </metadata>
  <trk>
    <name><![CDATA[10657866-DRAC HORAIRE]]></name>
    <trkseg>
      <trkpt lat="44.8789" lon="5.74226">
        <ele>833</ele>
        <time>2019-10-27T19:22:42Z</time>
      </trkpt>
      <trkpt lat="44.87862" lon="5.74218">
        <ele>829</ele>
        <time>2019-10-27T19:22:49Z</time>
      </trkpt>
      <trkpt lat="44.87869" lon="5.74194">
        <ele>828</ele>
        <time>2019-10-27T19:22:53Z</time>
      </trkpt>
      <trkpt lat="44.87894" lon="5.7414">
        <ele>819</ele>
        <time>2019-10-27T19:23:04Z</time>
      </trkpt>
      <trkpt lat="44.8784" lon="5.74161">
        <ele>815</ele>
        <time>2019-10-27T19:23:17Z</time>
      </trkpt>
      <trkpt lat="44.87786" lon="5.74098">
        <ele>802</ele>
        <time>2019-10-27T19:23:33Z</time>
      </trkpt>
      <trkpt lat="44.87714" lon="5.74041">
        <ele>788</ele>
        <time>2019-10-27T19:23:52Z</time>
      </trkpt>
      <trkpt lat="44.87703" lon="5.74015">
        <ele>787</ele>
        <time>2019-10-27T19:23:57Z</time>
      </trkpt>
      <trkpt lat="44.8763" lon="5.73898">
        <ele>767</ele>
        <time>2019-10-27T19:24:23Z</time>
      </trkpt>
      <trkpt lat="44.87621" lon="5.73864">
        <ele>764</ele>
        <time>2019-10-27T19:24:29Z</time>
      </trkpt>
      <trkpt lat="44.87594" lon="5.73833">
        <ele>756</ele>
        <time>2019-10-27T19:24:37Z</time>
      </trkpt>
      <trkpt lat="44.87574" lon="5.73784">
        <ele>748</ele>
        <time>2019-10-27T19:24:47Z</time>
      </trkpt>
      <trkpt lat="44.87576" lon="5.73721">
        <ele>738</ele>
        <time>2019-10-27T19:24:57Z</time>
      </trkpt>
      <trkpt lat="44.87544" lon="5.73685">
        <ele>734</ele>
        <time>2019-10-27T19:25:07Z</time>
      </trkpt>
      <trkpt lat="44.87515" lon="5.7363">
        <ele>721</ele>
        <time>2019-10-27T19:25:18Z</time>
      </trkpt>
      <trkpt lat="44.87482" lon="5.73638">
        <ele>718</ele>
        <time>2019-10-27T19:25:26Z</time>
      </trkpt>
      <trkpt lat="44.87456" lon="5.73667">
        <ele>728</ele>
        <time>2019-10-27T19:25:34Z</time>
      </trkpt>
      <trkpt lat="44.87445" lon="5.73732">
        <ele>731</ele>
        <time>2019-10-27T19:25:45Z</time>
      </trkpt>
      <trkpt lat="44.87432" lon="5.73771">
        <ele>735</ele>
        <time>2019-10-27T19:25:52Z</time>
      </trkpt>
      <trkpt lat="44.87429" lon="5.73797">
        <ele>736</ele>
        <time>2019-10-27T19:25:56Z</time>
      </trkpt>
      <trkpt lat="44.87405" lon="5.73857">
        <ele>729</ele>
        <time>2019-10-27T19:26:08Z</time>
      </trkpt>
      <trkpt lat="44.87369" lon="5.73958">
        <ele>730</ele>
        <time>2019-10-27T19:26:26Z</time>
      </trkpt>
      <trkpt lat="44.8733" lon="5.73981">
        <ele>718</ele>
        <time>2019-10-27T19:26:36Z</time>
      </trkpt>
      <trkpt lat="44.87274" lon="5.74106">
        <ele>712</ele>
        <time>2019-10-27T19:27:01Z</time>
      </trkpt>
      <trkpt lat="44.87292" lon="5.74202">
        <ele>714</ele>
        <time>2019-10-27T19:27:17Z</time>
      </trkpt>
      <trkpt lat="44.87339" lon="5.74265">
        <ele>722</ele>
        <time>2019-10-27T19:27:32Z</time>
      </trkpt>
      <trkpt lat="44.87398" lon="5.74288">
        <ele>727</ele>
        <time>2019-10-27T19:27:46Z</time>
      </trkpt>
      <trkpt lat="44.87423" lon="5.74327">
        <ele>734</ele>
        <time>2019-10-27T19:27:55Z</time>
      </trkpt>
      <trkpt lat="44.87396" lon="5.74381">
        <ele>726</ele>
        <time>2019-10-27T19:28:06Z</time>
      </trkpt>
      <trkpt lat="44.87366" lon="5.74449">
        <ele>729</ele>
        <time>2019-10-27T19:28:19Z</time>
      </trkpt>
      <trkpt lat="44.87369" lon="5.74527">
        <ele>735</ele>
        <time>2019-10-27T19:28:32Z</time>
      </trkpt>
      <trkpt lat="44.87385" lon="5.74587">
        <ele>736</ele>
        <time>2019-10-27T19:28:43Z</time>
      </trkpt>
      <trkpt lat="44.87397" lon="5.74665">
        <ele>738</ele>
        <time>2019-10-27T19:28:56Z</time>
      </trkpt>
      <trkpt lat="44.8741" lon="5.74702">
        <ele>736</ele>
        <time>2019-10-27T19:29:03Z</time>
      </trkpt>
      <trkpt lat="44.87413" lon="5.74725">
        <ele>738</ele>
        <time>2019-10-27T19:29:07Z</time>
      </trkpt>
      <trkpt lat="44.87398" lon="5.74852">
        <ele>739</ele>
        <time>2019-10-27T19:29:28Z</time>
      </trkpt>
      <trkpt lat="44.87402" lon="5.74885">
        <ele>737</ele>
        <time>2019-10-27T19:29:34Z</time>
      </trkpt>
      <trkpt lat="44.87405" lon="5.74895">
        <ele>739</ele>
        <time>2019-10-27T19:29:35Z</time>
      </trkpt>
      <trkpt lat="44.87427" lon="5.74935">
        <ele>751</ele>
        <time>2019-10-27T19:29:44Z</time>
      </trkpt>
      <trkpt lat="44.87463" lon="5.74985">
        <ele>751</ele>
        <time>2019-10-27T19:29:56Z</time>
      </trkpt>
      <trkpt lat="44.87495" lon="5.75012">
        <ele>745</ele>
        <time>2019-10-27T19:30:04Z</time>
      </trkpt>
      <trkpt lat="44.87562" lon="5.75055">
        <ele>757</ele>
        <time>2019-10-27T19:30:22Z</time>
      </trkpt>
      <trkpt lat="44.87657" lon="5.75168">
        <ele>755</ele>
        <time>2019-10-27T19:30:51Z</time>
      </trkpt>
      <trkpt lat="44.87722" lon="5.75235">
        <ele>770</ele>
        <time>2019-10-27T19:31:09Z</time>
      </trkpt>
      <trkpt lat="44.87792" lon="5.75288">
        <ele>779</ele>
        <time>2019-10-27T19:31:28Z</time>
      </trkpt>
      <trkpt lat="44.8786" lon="5.75328">
        <ele>789</ele>
        <time>2019-10-27T19:31:45Z</time>
      </trkpt>
      <trkpt lat="44.87865" lon="5.75332">
        <ele>790</ele>
        <time>2019-10-27T19:31:46Z</time>
      </trkpt>
      <trkpt lat="44.8787" lon="5.75342">
        <ele>792</ele>
        <time>2019-10-27T19:31:48Z</time>
      </trkpt>
      <trkpt lat="44.8787" lon="5.75348">
        <ele>793</ele>
        <time>2019-10-27T19:31:49Z</time>
      </trkpt>
      <trkpt lat="44.8786" lon="5.75368">
        <ele>794</ele>
        <time>2019-10-27T19:31:53Z</time>
      </trkpt>
      <trkpt lat="44.87845" lon="5.75375">
        <ele>794</ele>
        <time>2019-10-27T19:31:57Z</time>
      </trkpt>
      <trkpt lat="44.87787" lon="5.75388">
        <ele>787</ele>
        <time>2019-10-27T19:32:11Z</time>
      </trkpt>
      <trkpt lat="44.87692" lon="5.75427">
        <ele>797</ele>
        <time>2019-10-27T19:32:34Z</time>
      </trkpt>
      <trkpt lat="44.87633" lon="5.75437">
        <ele>790</ele>
        <time>2019-10-27T19:32:48Z</time>
      </trkpt>
      <trkpt lat="44.87597" lon="5.75447">
        <ele>790</ele>
        <time>2019-10-27T19:32:56Z</time>
      </trkpt>
      <trkpt lat="44.87573" lon="5.75463">
        <ele>781</ele>
        <time>2019-10-27T19:33:03Z</time>
      </trkpt>
      <trkpt lat="44.8757" lon="5.75467">
        <ele>782</ele>
        <time>2019-10-27T19:33:04Z</time>
      </trkpt>
      <trkpt lat="44.87572" lon="5.7547">
        <ele>783</ele>
        <time>2019-10-27T19:33:04Z</time>
      </trkpt>
      <trkpt lat="44.87568" lon="5.75472">
        <ele>783</ele>
        <time>2019-10-27T19:33:05Z</time>
      </trkpt>
      <trkpt lat="44.87572" lon="5.75473">
        <ele>784</ele>
        <time>2019-10-27T19:33:06Z</time>
      </trkpt>
      <trkpt lat="44.8757" lon="5.75492">
        <ele>792</ele>
        <time>2019-10-27T19:33:09Z</time>
      </trkpt>
      <trkpt lat="44.87575" lon="5.75495">
        <ele>796</ele>
        <time>2019-10-27T19:33:11Z</time>
      </trkpt>
      <trkpt lat="44.87572" lon="5.75522">
        <ele>796</ele>
        <time>2019-10-27T19:33:15Z</time>
      </trkpt>
      <trkpt lat="44.87573" lon="5.75537">
        <ele>796</ele>
        <time>2019-10-27T19:33:18Z</time>
      </trkpt>
      <trkpt lat="44.87582" lon="5.75557">
        <ele>800</ele>
        <time>2019-10-27T19:33:22Z</time>
      </trkpt>
      <trkpt lat="44.87587" lon="5.75578">
        <ele>821</ele>
        <time>2019-10-27T19:33:25Z</time>
      </trkpt>
      <trkpt lat="44.8759" lon="5.75607">
        <ele>827</ele>
        <time>2019-10-27T19:33:30Z</time>
      </trkpt>
      <trkpt lat="44.87628" lon="5.7569">
        <ele>829</ele>
        <time>2019-10-27T19:33:46Z</time>
      </trkpt>
      <trkpt lat="44.87648" lon="5.7577">
        <ele>823</ele>
        <time>2019-10-27T19:34:01Z</time>
      </trkpt>
      <trkpt lat="44.87662" lon="5.7581">
        <ele>819</ele>
        <time>2019-10-27T19:34:08Z</time>
      </trkpt>
      <trkpt lat="44.87688" lon="5.75835">
        <ele>832</ele>
        <time>2019-10-27T19:34:15Z</time>
      </trkpt>
      <trkpt lat="44.87705" lon="5.75843">
        <ele>835</ele>
        <time>2019-10-27T19:34:19Z</time>
      </trkpt>
      <trkpt lat="44.87707" lon="5.75848">
        <ele>836</ele>
        <time>2019-10-27T19:34:20Z</time>
      </trkpt>
      <trkpt lat="44.87725" lon="5.75865">
        <ele>838</ele>
        <time>2019-10-27T19:34:25Z</time>
      </trkpt>
      <trkpt lat="44.87783" lon="5.75957">
        <ele>852</ele>
        <time>2019-10-27T19:34:46Z</time>
      </trkpt>
      <trkpt lat="44.87788" lon="5.7606">
        <ele>841</ele>
        <time>2019-10-27T19:35:03Z</time>
      </trkpt>
      <trkpt lat="44.87808" lon="5.76115">
        <ele>840</ele>
        <time>2019-10-27T19:35:13Z</time>
      </trkpt>
      <trkpt lat="44.87815" lon="5.76125">
        <ele>841</ele>
        <time>2019-10-27T19:35:15Z</time>
      </trkpt>
      <trkpt lat="44.8782" lon="5.76138">
        <ele>841</ele>
        <time>2019-10-27T19:35:18Z</time>
      </trkpt>
      <trkpt lat="44.87843" lon="5.76233">
        <ele>852</ele>
        <time>2019-10-27T19:35:35Z</time>
      </trkpt>
      <trkpt lat="44.87852" lon="5.76242">
        <ele>853</ele>
        <time>2019-10-27T19:35:37Z</time>
      </trkpt>
      <trkpt lat="44.87893" lon="5.76268">
        <ele>852</ele>
        <time>2019-10-27T19:35:48Z</time>
      </trkpt>
      <trkpt lat="44.87918" lon="5.76308">
        <ele>863</ele>
        <time>2019-10-27T19:35:56Z</time>
      </trkpt>
      <trkpt lat="44.87965" lon="5.76397">
        <ele>857</ele>
        <time>2019-10-27T19:36:15Z</time>
      </trkpt>
      <trkpt lat="44.88037" lon="5.76464">
        <ele>862</ele>
        <time>2019-10-27T19:36:35Z</time>
      </trkpt>
      <trkpt lat="44.87915" lon="5.76434">
        <ele>831</ele>
        <time>2019-10-27T19:37:04Z</time>
      </trkpt>
      <trkpt lat="44.8782" lon="5.76407">
        <ele>814</ele>
        <time>2019-10-27T19:37:26Z</time>
      </trkpt>
      <trkpt lat="44.87808" lon="5.76464">
        <ele>803</ele>
        <time>2019-10-27T19:37:36Z</time>
      </trkpt>
      <trkpt lat="44.87794" lon="5.76505">
        <ele>794</ele>
        <time>2019-10-27T19:37:44Z</time>
      </trkpt>
      <trkpt lat="44.87783" lon="5.76554">
        <ele>791</ele>
        <time>2019-10-27T19:37:52Z</time>
      </trkpt>
      <trkpt lat="44.87782" lon="5.76596">
        <ele>781</ele>
        <time>2019-10-27T19:37:59Z</time>
      </trkpt>
      <trkpt lat="44.878" lon="5.76628">
        <ele>779</ele>
        <time>2019-10-27T19:38:06Z</time>
      </trkpt>
      <trkpt lat="44.87797" lon="5.76657">
        <ele>776</ele>
        <time>2019-10-27T19:38:11Z</time>
      </trkpt>
      <trkpt lat="44.87749" lon="5.76726">
        <ele>748</ele>
        <time>2019-10-27T19:38:27Z</time>
      </trkpt>
      <trkpt lat="44.87716" lon="5.76743">
        <ele>744</ele>
        <time>2019-10-27T19:38:35Z</time>
      </trkpt>
      <trkpt lat="44.87691" lon="5.76795">
        <ele>725</ele>
        <time>2019-10-27T19:38:46Z</time>
      </trkpt>
      <trkpt lat="44.8767" lon="5.76804">
        <ele>722</ele>
        <time>2019-10-27T19:38:51Z</time>
      </trkpt>
      <trkpt lat="44.87639" lon="5.76771">
        <ele>710</ele>
        <time>2019-10-27T19:39:00Z</time>
      </trkpt>
      <trkpt lat="44.87618" lon="5.7676">
        <ele>706</ele>
        <time>2019-10-27T19:39:05Z</time>
      </trkpt>
      <trkpt lat="44.87617" lon="5.76798">
        <ele>704</ele>
        <time>2019-10-27T19:39:11Z</time>
      </trkpt>
      <trkpt lat="44.87621" lon="5.76862">
        <ele>693</ele>
        <time>2019-10-27T19:39:22Z</time>
      </trkpt>
      <trkpt lat="44.87627" lon="5.76897">
        <ele>690</ele>
        <time>2019-10-27T19:39:28Z</time>
      </trkpt>
      <trkpt lat="44.876" lon="5.7692">
        <ele>673</ele>
        <time>2019-10-27T19:39:35Z</time>
      </trkpt>
      <trkpt lat="44.87569" lon="5.76934">
        <ele>662</ele>
        <time>2019-10-27T19:39:43Z</time>
      </trkpt>
      <trkpt lat="44.87546" lon="5.76966">
        <ele>653</ele>
        <time>2019-10-27T19:39:50Z</time>
      </trkpt>
      <trkpt lat="44.87542" lon="5.77018">
        <ele>634</ele>
        <time>2019-10-27T19:39:59Z</time>
      </trkpt>
      <trkpt lat="44.87551" lon="5.77099">
        <ele>608</ele>
        <time>2019-10-27T19:40:13Z</time>
      </trkpt>
      <trkpt lat="44.87492" lon="5.77089">
        <ele>609</ele>
        <time>2019-10-27T19:40:26Z</time>
      </trkpt>
      <trkpt lat="44.87467" lon="5.77072">
        <ele>609</ele>
        <time>2019-10-27T19:40:33Z</time>
      </trkpt>
      <trkpt lat="44.87432" lon="5.77077">
        <ele>598</ele>
        <time>2019-10-27T19:40:41Z</time>
      </trkpt>
      <trkpt lat="44.87413" lon="5.77105">
        <ele>569</ele>
        <time>2019-10-27T19:40:48Z</time>
      </trkpt>
      <trkpt lat="44.87424" lon="5.77127">
        <ele>589</ele>
        <time>2019-10-27T19:40:52Z</time>
      </trkpt>
      <trkpt lat="44.87405" lon="5.77158">
        <ele>566</ele>
        <time>2019-10-27T19:40:59Z</time>
      </trkpt>
      <trkpt lat="44.87433" lon="5.77197">
        <ele>576</ele>
        <time>2019-10-27T19:41:08Z</time>
      </trkpt>
      <trkpt lat="44.87418" lon="5.77216">
        <ele>572</ele>
        <time>2019-10-27T19:41:13Z</time>
      </trkpt>
      <trkpt lat="44.87452" lon="5.77261">
        <ele>558</ele>
        <time>2019-10-27T19:41:24Z</time>
      </trkpt>
      <trkpt lat="44.87501" lon="5.77277">
        <ele>564</ele>
        <time>2019-10-27T19:41:35Z</time>
      </trkpt>
      <trkpt lat="44.87523" lon="5.77277">
        <ele>563</ele>
        <time>2019-10-27T19:41:40Z</time>
      </trkpt>
      <trkpt lat="44.87471" lon="5.77292">
        <ele>555</ele>
        <time>2019-10-27T19:41:53Z</time>
      </trkpt>
      <trkpt lat="44.87446" lon="5.77291">
        <ele>554</ele>
        <time>2019-10-27T19:41:59Z</time>
      </trkpt>
      <trkpt lat="44.87421" lon="5.77302">
        <ele>550</ele>
        <time>2019-10-27T19:42:05Z</time>
      </trkpt>
      <trkpt lat="44.87405" lon="5.77321">
        <ele>534</ele>
        <time>2019-10-27T19:42:10Z</time>
      </trkpt>
      <trkpt lat="44.87384" lon="5.77293">
        <ele>533</ele>
        <time>2019-10-27T19:42:16Z</time>
      </trkpt>
      <trkpt lat="44.87387" lon="5.77326">
        <ele>531</ele>
        <time>2019-10-27T19:42:22Z</time>
      </trkpt>
      <trkpt lat="44.87424" lon="5.77335">
        <ele>536</ele>
        <time>2019-10-27T19:42:31Z</time>
      </trkpt>
      <trkpt lat="44.87433" lon="5.77363">
        <ele>533</ele>
        <time>2019-10-27T19:42:36Z</time>
      </trkpt>
      <trkpt lat="44.87375" lon="5.77365">
        <ele>520</ele>
        <time>2019-10-27T19:42:49Z</time>
      </trkpt>
      <trkpt lat="44.87356" lon="5.77343">
        <ele>517</ele>
        <time>2019-10-27T19:42:55Z</time>
      </trkpt>
      <trkpt lat="44.87352" lon="5.773">
        <ele>525</ele>
        <time>2019-10-27T19:43:02Z</time>
      </trkpt>
      <trkpt lat="44.87332" lon="5.77299">
        <ele>511</ele>
        <time>2019-10-27T19:43:07Z</time>
      </trkpt>
      <trkpt lat="44.87322" lon="5.77333">
        <ele>511</ele>
        <time>2019-10-27T19:43:13Z</time>
      </trkpt>
      <trkpt lat="44.87292" lon="5.77319">
        <ele>511</ele>
        <time>2019-10-27T19:43:20Z</time>
      </trkpt>
      <trkpt lat="44.8727" lon="5.77336">
        <ele>512</ele>
        <time>2019-10-27T19:43:26Z</time>
      </trkpt>
      <trkpt lat="44.87268" lon="5.77295">
        <ele>511</ele>
        <time>2019-10-27T19:43:33Z</time>
      </trkpt>
      <trkpt lat="44.87257" lon="5.77247">
        <ele>511</ele>
        <time>2019-10-27T19:43:41Z</time>
      </trkpt>
      <trkpt lat="44.87227" lon="5.7719">
        <ele>520</ele>
        <time>2019-10-27T19:43:53Z</time>
      </trkpt>
      <trkpt lat="44.87197" lon="5.77151">
        <ele>524</ele>
        <time>2019-10-27T19:44:03Z</time>
      </trkpt>
      <trkpt lat="44.87188" lon="5.77112">
        <ele>525</ele>
        <time>2019-10-27T19:44:09Z</time>
      </trkpt>
      <trkpt lat="44.87203" lon="5.77032">
        <ele>525</ele>
        <time>2019-10-27T19:44:23Z</time>
      </trkpt>
      <trkpt lat="44.87204" lon="5.76972">
        <ele>525</ele>
        <time>2019-10-27T19:44:33Z</time>
      </trkpt>
      <trkpt lat="44.87185" lon="5.76935">
        <ele>528</ele>
        <time>2019-10-27T19:44:41Z</time>
      </trkpt>
      <trkpt lat="44.87152" lon="5.76976">
        <ele>534</ele>
        <time>2019-10-27T19:44:51Z</time>
      </trkpt>
      <trkpt lat="44.87147" lon="5.76935">
        <ele>535</ele>
        <time>2019-10-27T19:44:58Z</time>
      </trkpt>
      <trkpt lat="44.87138" lon="5.76894">
        <ele>537</ele>
        <time>2019-10-27T19:45:05Z</time>
      </trkpt>
      <trkpt lat="44.87085" lon="5.76878">
        <ele>539</ele>
        <time>2019-10-27T19:45:18Z</time>
      </trkpt>
      <trkpt lat="44.87047" lon="5.76874">
        <ele>547</ele>
        <time>2019-10-27T19:45:26Z</time>
      </trkpt>
      <trkpt lat="44.87023" lon="5.7686">
        <ele>550</ele>
        <time>2019-10-27T19:45:33Z</time>
      </trkpt>
      <trkpt lat="44.86995" lon="5.76858">
        <ele>565</ele>
        <time>2019-10-27T19:45:39Z</time>
      </trkpt>
      <trkpt lat="44.86988" lon="5.76829">
        <ele>565</ele>
        <time>2019-10-27T19:45:44Z</time>
      </trkpt>
      <trkpt lat="44.8699" lon="5.76787">
        <ele>572</ele>
        <time>2019-10-27T19:45:51Z</time>
      </trkpt>
      <trkpt lat="44.86997" lon="5.76755">
        <ele>568</ele>
        <time>2019-10-27T19:45:57Z</time>
      </trkpt>
      <trkpt lat="44.86973" lon="5.7672">
        <ele>580</ele>
        <time>2019-10-27T19:46:05Z</time>
      </trkpt>
      <trkpt lat="44.86966" lon="5.76687">
        <ele>582</ele>
        <time>2019-10-27T19:46:10Z</time>
      </trkpt>
      <trkpt lat="44.86968" lon="5.76657">
        <ele>585</ele>
        <time>2019-10-27T19:46:15Z</time>
      </trkpt>
      <trkpt lat="44.86965" lon="5.76629">
        <ele>586</ele>
        <time>2019-10-27T19:46:20Z</time>
      </trkpt>
      <trkpt lat="44.8702" lon="5.76478">
        <ele>581</ele>
        <time>2019-10-27T19:46:48Z</time>
      </trkpt>
      <trkpt lat="44.87028" lon="5.7642">
        <ele>581</ele>
        <time>2019-10-27T19:46:58Z</time>
      </trkpt>
      <trkpt lat="44.86996" lon="5.76348">
        <ele>584</ele>
        <time>2019-10-27T19:47:12Z</time>
      </trkpt>
      <trkpt lat="44.86989" lon="5.76294">
        <ele>571</ele>
        <time>2019-10-27T19:47:21Z</time>
      </trkpt>
      <trkpt lat="44.86955" lon="5.76307">
        <ele>576</ele>
        <time>2019-10-27T19:47:29Z</time>
      </trkpt>
      <trkpt lat="44.86923" lon="5.76286">
        <ele>575</ele>
        <time>2019-10-27T19:47:38Z</time>
      </trkpt>
      <trkpt lat="44.86918" lon="5.76234">
        <ele>560</ele>
        <time>2019-10-27T19:47:46Z</time>
      </trkpt>
      <trkpt lat="44.86899" lon="5.76195">
        <ele>569</ele>
        <time>2019-10-27T19:47:54Z</time>
      </trkpt>
      <trkpt lat="44.86879" lon="5.76167">
        <ele>572</ele>
        <time>2019-10-27T19:48:01Z</time>
      </trkpt>
      <trkpt lat="44.86873" lon="5.76145">
        <ele>561</ele>
        <time>2019-10-27T19:48:05Z</time>
      </trkpt>
      <trkpt lat="44.86871" lon="5.76125">
        <ele>560</ele>
        <time>2019-10-27T19:48:08Z</time>
      </trkpt>
      <trkpt lat="44.86875" lon="5.76111">
        <ele>557</ele>
        <time>2019-10-27T19:48:10Z</time>
      </trkpt>
      <trkpt lat="44.86882" lon="5.76043">
        <ele>542</ele>
        <time>2019-10-27T19:48:22Z</time>
      </trkpt>
      <trkpt lat="44.86881" lon="5.75981">
        <ele>533</ele>
        <time>2019-10-27T19:48:32Z</time>
      </trkpt>
      <trkpt lat="44.86863" lon="5.75899">
        <ele>531</ele>
        <time>2019-10-27T19:48:46Z</time>
      </trkpt>
      <trkpt lat="44.86842" lon="5.75854">
        <ele>532</ele>
        <time>2019-10-27T19:48:55Z</time>
      </trkpt>
      <trkpt lat="44.86859" lon="5.75824">
        <ele>525</ele>
        <time>2019-10-27T19:49:02Z</time>
      </trkpt>
      <trkpt lat="44.86844" lon="5.75761">
        <ele>526</ele>
        <time>2019-10-27T19:49:13Z</time>
      </trkpt>
      <trkpt lat="44.86824" lon="5.757">
        <ele>540</ele>
        <time>2019-10-27T19:49:24Z</time>
      </trkpt>
      <trkpt lat="44.86803" lon="5.75669">
        <ele>541</ele>
        <time>2019-10-27T19:49:31Z</time>
      </trkpt>
      <trkpt lat="44.86796" lon="5.75607">
        <ele>535</ele>
        <time>2019-10-27T19:49:41Z</time>
      </trkpt>
      <trkpt lat="44.8678" lon="5.75575">
        <ele>532</ele>
        <time>2019-10-27T19:49:48Z</time>
      </trkpt>
      <trkpt lat="44.86781" lon="5.7551">
        <ele>528</ele>
        <time>2019-10-27T19:49:58Z</time>
      </trkpt>
      <trkpt lat="44.86769" lon="5.7544">
        <ele>521</ele>
        <time>2019-10-27T19:50:10Z</time>
      </trkpt>
      <trkpt lat="44.86764" lon="5.75362">
        <ele>516</ele>
        <time>2019-10-27T19:50:23Z</time>
      </trkpt>
      <trkpt lat="44.8676" lon="5.75266">
        <ele>515</ele>
        <time>2019-10-27T19:50:39Z</time>
      </trkpt>
      <trkpt lat="44.86764" lon="5.75202">
        <ele>507</ele>
        <time>2019-10-27T19:50:50Z</time>
      </trkpt>
      <trkpt lat="44.86742" lon="5.75165">
        <ele>514</ele>
        <time>2019-10-27T19:50:58Z</time>
      </trkpt>
      <trkpt lat="44.86711" lon="5.75161">
        <ele>522</ele>
        <time>2019-10-27T19:51:05Z</time>
      </trkpt>
      <trkpt lat="44.86657" lon="5.75189">
        <ele>539</ele>
        <time>2019-10-27T19:51:19Z</time>
      </trkpt>
      <trkpt lat="44.86686" lon="5.7515">
        <ele>526</ele>
        <time>2019-10-27T19:51:28Z</time>
      </trkpt>
      <trkpt lat="44.86713" lon="5.75092">
        <ele>522</ele>
        <time>2019-10-27T19:51:39Z</time>
      </trkpt>
      <trkpt lat="44.86721" lon="5.75045">
        <ele>518</ele>
        <time>2019-10-27T19:51:47Z</time>
      </trkpt>
      <trkpt lat="44.86649" lon="5.7484">
        <ele>521</ele>
        <time>2019-10-27T19:52:25Z</time>
      </trkpt>
      <trkpt lat="44.86623" lon="5.74786">
        <ele>519</ele>
        <time>2019-10-27T19:52:36Z</time>
      </trkpt>
      <trkpt lat="44.86593" lon="5.74774">
        <ele>524</ele>
        <time>2019-10-27T19:52:43Z</time>
      </trkpt>
      <trkpt lat="44.86569" lon="5.74774">
        <ele>540</ele>
        <time>2019-10-27T19:52:49Z</time>
      </trkpt>
      <trkpt lat="44.86549" lon="5.74763">
        <ele>543</ele>
        <time>2019-10-27T19:52:54Z</time>
      </trkpt>
      <trkpt lat="44.8653" lon="5.74761">
        <ele>546</ele>
        <time>2019-10-27T19:52:58Z</time>
      </trkpt>
      <trkpt lat="44.86555" lon="5.74729">
        <ele>541</ele>
        <time>2019-10-27T19:53:06Z</time>
      </trkpt>
      <trkpt lat="44.86608" lon="5.74712">
        <ele>515</ele>
        <time>2019-10-27T19:53:19Z</time>
      </trkpt>
      <trkpt lat="44.86621" lon="5.74699">
        <ele>512</ele>
        <time>2019-10-27T19:53:23Z</time>
      </trkpt>
      <trkpt lat="44.86611" lon="5.74588">
        <ele>517</ele>
        <time>2019-10-27T19:53:41Z</time>
      </trkpt>
      <trkpt lat="44.86614" lon="5.7454">
        <ele>516</ele>
        <time>2019-10-27T19:53:49Z</time>
      </trkpt>
      <trkpt lat="44.86613" lon="5.74483">
        <ele>518</ele>
        <time>2019-10-27T19:53:59Z</time>
      </trkpt>
      <trkpt lat="44.86629" lon="5.74424">
        <ele>515</ele>
        <time>2019-10-27T19:54:09Z</time>
      </trkpt>
      <trkpt lat="44.86635" lon="5.74344">
        <ele>516</ele>
        <time>2019-10-27T19:54:22Z</time>
      </trkpt>
      <trkpt lat="44.86631" lon="5.74255">
        <ele>519</ele>
        <time>2019-10-27T19:54:37Z</time>
      </trkpt>
      <trkpt lat="44.86612" lon="5.74186">
        <ele>521</ele>
        <time>2019-10-27T19:54:49Z</time>
      </trkpt>
      <trkpt lat="44.86582" lon="5.74132">
        <ele>534</ele>
        <time>2019-10-27T19:55:01Z</time>
      </trkpt>
      <trkpt lat="44.86596" lon="5.74104">
        <ele>526</ele>
        <time>2019-10-27T19:55:06Z</time>
      </trkpt>
      <trkpt lat="44.86588" lon="5.74007">
        <ele>531</ele>
        <time>2019-10-27T19:55:23Z</time>
      </trkpt>
      <trkpt lat="44.86558" lon="5.7392">
        <ele>536</ele>
        <time>2019-10-27T19:55:39Z</time>
      </trkpt>
      <trkpt lat="44.86527" lon="5.73864">
        <ele>535</ele>
        <time>2019-10-27T19:55:50Z</time>
      </trkpt>
      <trkpt lat="44.86474" lon="5.73846">
        <ele>546</ele>
        <time>2019-10-27T19:56:03Z</time>
      </trkpt>
      <trkpt lat="44.86445" lon="5.73847">
        <ele>553</ele>
        <time>2019-10-27T19:56:10Z</time>
      </trkpt>
      <trkpt lat="44.86411" lon="5.73915">
        <ele>564</ele>
        <time>2019-10-27T19:56:24Z</time>
      </trkpt>
      <trkpt lat="44.86446" lon="5.73925">
        <ele>555</ele>
        <time>2019-10-27T19:56:32Z</time>
      </trkpt>
      <trkpt lat="44.86456" lon="5.73959">
        <ele>555</ele>
        <time>2019-10-27T19:56:38Z</time>
      </trkpt>
      <trkpt lat="44.86453" lon="5.74007">
        <ele>560</ele>
        <time>2019-10-27T19:56:46Z</time>
      </trkpt>
      <trkpt lat="44.86432" lon="5.73976">
        <ele>559</ele>
        <time>2019-10-27T19:56:53Z</time>
      </trkpt>
      <trkpt lat="44.86402" lon="5.74041">
        <ele>577</ele>
        <time>2019-10-27T19:57:06Z</time>
      </trkpt>
      <trkpt lat="44.86359" lon="5.74057">
        <ele>584</ele>
        <time>2019-10-27T19:57:16Z</time>
      </trkpt>
      <trkpt lat="44.86299" lon="5.74062">
        <ele>598</ele>
        <time>2019-10-27T19:57:30Z</time>
      </trkpt>
      <trkpt lat="44.8628" lon="5.74074">
        <ele>601</ele>
        <time>2019-10-27T19:57:35Z</time>
      </trkpt>
      <trkpt lat="44.8625" lon="5.74046">
        <ele>606</ele>
        <time>2019-10-27T19:57:44Z</time>
      </trkpt>
      <trkpt lat="44.86216" lon="5.7407">
        <ele>609</ele>
        <time>2019-10-27T19:57:53Z</time>
      </trkpt>
      <trkpt lat="44.86199" lon="5.74098">
        <ele>622</ele>
        <time>2019-10-27T19:57:59Z</time>
      </trkpt>
      <trkpt lat="44.86184" lon="5.74135">
        <ele>627</ele>
        <time>2019-10-27T19:58:06Z</time>
      </trkpt>
      <trkpt lat="44.8618" lon="5.74194">
        <ele>636</ele>
        <time>2019-10-27T19:58:16Z</time>
      </trkpt>
      <trkpt lat="44.86172" lon="5.74237">
        <ele>641</ele>
        <time>2019-10-27T19:58:23Z</time>
      </trkpt>
      <trkpt lat="44.86151" lon="5.74242">
        <ele>647</ele>
        <time>2019-10-27T19:58:28Z</time>
      </trkpt>
      <trkpt lat="44.86144" lon="5.74177">
        <ele>645</ele>
        <time>2019-10-27T19:58:39Z</time>
      </trkpt>
      <trkpt lat="44.86119" lon="5.74195">
        <ele>647</ele>
        <time>2019-10-27T19:58:45Z</time>
      </trkpt>
      <trkpt lat="44.86088" lon="5.74232">
        <ele>654</ele>
        <time>2019-10-27T19:58:55Z</time>
      </trkpt>
      <trkpt lat="44.86063" lon="5.74298">
        <ele>665</ele>
        <time>2019-10-27T19:59:07Z</time>
      </trkpt>
      <trkpt lat="44.86035" lon="5.74359">
        <ele>673</ele>
        <time>2019-10-27T19:59:19Z</time>
      </trkpt>
      <trkpt lat="44.85995" lon="5.74427">
        <ele>683</ele>
        <time>2019-10-27T19:59:34Z</time>
      </trkpt>
      <trkpt lat="44.85939" lon="5.74486">
        <ele>686</ele>
        <time>2019-10-27T19:59:50Z</time>
      </trkpt>
      <trkpt lat="44.85868" lon="5.74539">
        <ele>701</ele>
        <time>2019-10-27T20:00:09Z</time>
      </trkpt>
      <trkpt lat="44.85714" lon="5.74312">
        <ele>689</ele>
        <time>2019-10-27T20:01:01Z</time>
      </trkpt>
      <trkpt lat="44.85708" lon="5.74229">
        <ele>680</ele>
        <time>2019-10-27T20:01:15Z</time>
      </trkpt>
      <trkpt lat="44.85624" lon="5.74143">
        <ele>694</ele>
        <time>2019-10-27T20:01:39Z</time>
      </trkpt>
      <trkpt lat="44.85602" lon="5.74035">
        <ele>699</ele>
        <time>2019-10-27T20:01:58Z</time>
      </trkpt>
      <trkpt lat="44.85634" lon="5.73972">
        <ele>698</ele>
        <time>2019-10-27T20:02:10Z</time>
      </trkpt>
      <trkpt lat="44.85621" lon="5.73925">
        <ele>701</ele>
        <time>2019-10-27T20:02:19Z</time>
      </trkpt>
      <trkpt lat="44.85646" lon="5.73852">
        <ele>700</ele>
        <time>2019-10-27T20:02:32Z</time>
      </trkpt>
      <trkpt lat="44.85655" lon="5.73792">
        <ele>705</ele>
        <time>2019-10-27T20:02:42Z</time>
      </trkpt>
      <trkpt lat="44.85655" lon="5.73732">
        <ele>711</ele>
        <time>2019-10-27T20:02:52Z</time>
      </trkpt>
      <trkpt lat="44.85694" lon="5.73629">
        <ele>704</ele>
        <time>2019-10-27T20:03:12Z</time>
      </trkpt>
      <trkpt lat="44.85699" lon="5.73582">
        <ele>704</ele>
        <time>2019-10-27T20:03:19Z</time>
      </trkpt>
      <trkpt lat="44.85702" lon="5.73517">
        <ele>703</ele>
        <time>2019-10-27T20:03:30Z</time>
      </trkpt>
      <trkpt lat="44.85716" lon="5.7344">
        <ele>703</ele>
        <time>2019-10-27T20:03:43Z</time>
      </trkpt>
      <trkpt lat="44.8574" lon="5.73404">
        <ele>701</ele>
        <time>2019-10-27T20:03:52Z</time>
      </trkpt>
      <trkpt lat="44.8579" lon="5.73363">
        <ele>695</ele>
        <time>2019-10-27T20:04:05Z</time>
      </trkpt>
      <trkpt lat="44.85743" lon="5.73359">
        <ele>706</ele>
        <time>2019-10-27T20:04:16Z</time>
      </trkpt>
      <trkpt lat="44.85714" lon="5.73369">
        <ele>706</ele>
        <time>2019-10-27T20:04:23Z</time>
      </trkpt>
      <trkpt lat="44.85684" lon="5.73376">
        <ele>708</ele>
        <time>2019-10-27T20:04:30Z</time>
      </trkpt>
      <trkpt lat="44.85653" lon="5.73406">
        <ele>713</ele>
        <time>2019-10-27T20:04:39Z</time>
      </trkpt>
      <trkpt lat="44.85632" lon="5.73414">
        <ele>712</ele>
        <time>2019-10-27T20:04:44Z</time>
      </trkpt>
      <trkpt lat="44.8558" lon="5.73405">
        <ele>713</ele>
        <time>2019-10-27T20:04:56Z</time>
      </trkpt>
      <trkpt lat="44.85557" lon="5.73428">
        <ele>718</ele>
        <time>2019-10-27T20:05:03Z</time>
      </trkpt>
      <trkpt lat="44.85529" lon="5.73437">
        <ele>719</ele>
        <time>2019-10-27T20:05:10Z</time>
      </trkpt>
      <trkpt lat="44.85502" lon="5.7345">
        <ele>720</ele>
        <time>2019-10-27T20:05:16Z</time>
      </trkpt>
      <trkpt lat="44.85444" lon="5.73457">
        <ele>725</ele>
        <time>2019-10-27T20:05:30Z</time>
      </trkpt>
      <trkpt lat="44.85418" lon="5.73447">
        <ele>725</ele>
        <time>2019-10-27T20:05:36Z</time>
      </trkpt>
      <trkpt lat="44.85377" lon="5.7344">
        <ele>732</ele>
        <time>2019-10-27T20:05:46Z</time>
      </trkpt>
      <trkpt lat="44.85347" lon="5.7342">
        <ele>733</ele>
        <time>2019-10-27T20:05:54Z</time>
      </trkpt>
      <trkpt lat="44.85318" lon="5.73414">
        <ele>733</ele>
        <time>2019-10-27T20:06:00Z</time>
      </trkpt>
      <trkpt lat="44.85287" lon="5.73398">
        <ele>732</ele>
        <time>2019-10-27T20:06:08Z</time>
      </trkpt>
      <trkpt lat="44.85257" lon="5.7339">
        <ele>733</ele>
        <time>2019-10-27T20:06:15Z</time>
      </trkpt>
      <trkpt lat="44.85226" lon="5.73391">
        <ele>729</ele>
        <time>2019-10-27T20:06:22Z</time>
      </trkpt>
      <trkpt lat="44.85204" lon="5.73428">
        <ele>731</ele>
        <time>2019-10-27T20:06:30Z</time>
      </trkpt>
      <trkpt lat="44.85185" lon="5.73453">
        <ele>730</ele>
        <time>2019-10-27T20:06:37Z</time>
      </trkpt>
      <trkpt lat="44.85162" lon="5.73475">
        <ele>728</ele>
        <time>2019-10-27T20:06:43Z</time>
      </trkpt>
      <trkpt lat="44.85147" lon="5.73483">
        <ele>729</ele>
        <time>2019-10-27T20:06:47Z</time>
      </trkpt>
      <trkpt lat="44.85127" lon="5.73485">
        <ele>729</ele>
        <time>2019-10-27T20:06:51Z</time>
      </trkpt>
      <trkpt lat="44.85125" lon="5.73466">
        <ele>730</ele>
        <time>2019-10-27T20:06:55Z</time>
      </trkpt>
      <trkpt lat="44.85139" lon="5.73444">
        <ele>729</ele>
        <time>2019-10-27T20:06:59Z</time>
      </trkpt>
      <trkpt lat="44.85126" lon="5.73427">
        <ele>731</ele>
        <time>2019-10-27T20:07:04Z</time>
      </trkpt>
      <trkpt lat="44.85108" lon="5.73431">
        <ele>733</ele>
        <time>2019-10-27T20:07:08Z</time>
      </trkpt>
      <trkpt lat="44.85094" lon="5.73439">
        <ele>734</ele>
        <time>2019-10-27T20:07:11Z</time>
      </trkpt>
      <trkpt lat="44.85075" lon="5.73441">
        <ele>742</ele>
        <time>2019-10-27T20:07:16Z</time>
      </trkpt>
      <trkpt lat="44.85055" lon="5.73447">
        <ele>743</ele>
        <time>2019-10-27T20:07:21Z</time>
      </trkpt>
      <trkpt lat="44.85037" lon="5.73439">
        <ele>746</ele>
        <time>2019-10-27T20:07:25Z</time>
      </trkpt>
      <trkpt lat="44.8502" lon="5.73437">
        <ele>749</ele>
        <time>2019-10-27T20:07:29Z</time>
      </trkpt>
      <trkpt lat="44.85003" lon="5.7344">
        <ele>751</ele>
        <time>2019-10-27T20:07:33Z</time>
      </trkpt>
      <trkpt lat="44.8499" lon="5.73438">
        <ele>759</ele>
        <time>2019-10-27T20:07:36Z</time>
      </trkpt>
      <trkpt lat="44.84973" lon="5.73445">
        <ele>758</ele>
        <time>2019-10-27T20:07:40Z</time>
      </trkpt>
      <trkpt lat="44.84923" lon="5.7345">
        <ele>761</ele>
        <time>2019-10-27T20:07:52Z</time>
      </trkpt>
      <trkpt lat="44.84901" lon="5.7345">
        <ele>764</ele>
        <time>2019-10-27T20:07:57Z</time>
      </trkpt>
      <trkpt lat="44.84882" lon="5.73446">
        <ele>764</ele>
        <time>2019-10-27T20:08:02Z</time>
      </trkpt>
      <trkpt lat="44.84854" lon="5.73421">
        <ele>766</ele>
        <time>2019-10-27T20:08:09Z</time>
      </trkpt>
      <trkpt lat="44.84901" lon="5.73366">
        <ele>787</ele>
        <time>2019-10-27T20:08:24Z</time>
      </trkpt>
      <trkpt lat="44.84964" lon="5.73337">
        <ele>785</ele>
        <time>2019-10-27T20:08:39Z</time>
      </trkpt>
      <trkpt lat="44.84987" lon="5.73301">
        <ele>802</ele>
        <time>2019-10-27T20:08:47Z</time>
      </trkpt>
      <trkpt lat="44.84999" lon="5.73218">
        <ele>821</ele>
        <time>2019-10-27T20:09:01Z</time>
      </trkpt>
      <trkpt lat="44.85006" lon="5.73186">
        <ele>815</ele>
        <time>2019-10-27T20:09:07Z</time>
      </trkpt>
      <trkpt lat="44.85027" lon="5.73118">
        <ele>829</ele>
        <time>2019-10-27T20:09:19Z</time>
      </trkpt>
      <trkpt lat="44.85155" lon="5.72961">
        <ele>859</ele>
        <time>2019-10-27T20:09:59Z</time>
      </trkpt>
      <trkpt lat="44.85216" lon="5.72874">
        <ele>863</ele>
        <time>2019-10-27T20:10:19Z</time>
      </trkpt>
      <trkpt lat="44.85272" lon="5.72787">
        <ele>853</ele>
        <time>2019-10-27T20:10:38Z</time>
      </trkpt>
      <trkpt lat="44.85325" lon="5.72731">
        <ele>856</ele>
        <time>2019-10-27T20:10:54Z</time>
      </trkpt>
      <trkpt lat="44.85383" lon="5.72634">
        <ele>854</ele>
        <time>2019-10-27T20:11:15Z</time>
      </trkpt>
      <trkpt lat="44.8543" lon="5.72566">
        <ele>850</ele>
        <time>2019-10-27T20:11:30Z</time>
      </trkpt>
      <trkpt lat="44.85477" lon="5.72515">
        <ele>847</ele>
        <time>2019-10-27T20:11:44Z</time>
      </trkpt>
      <trkpt lat="44.85536" lon="5.72468">
        <ele>844</ele>
        <time>2019-10-27T20:12:00Z</time>
      </trkpt>
      <trkpt lat="44.85567" lon="5.72428">
        <ele>845</ele>
        <time>2019-10-27T20:12:10Z</time>
      </trkpt>
      <trkpt lat="44.85612" lon="5.72428">
        <ele>829</ele>
        <time>2019-10-27T20:12:20Z</time>
      </trkpt>
      <trkpt lat="44.85636" lon="5.72405">
        <ele>849</ele>
        <time>2019-10-27T20:12:27Z</time>
      </trkpt>
      <trkpt lat="44.8567" lon="5.72405">
        <ele>833</ele>
        <time>2019-10-27T20:12:35Z</time>
      </trkpt>
      <trkpt lat="44.8574" lon="5.72388">
        <ele>831</ele>
        <time>2019-10-27T20:12:52Z</time>
      </trkpt>
      <trkpt lat="44.85769" lon="5.72378">
        <ele>818</ele>
        <time>2019-10-27T20:12:59Z</time>
      </trkpt>
      <trkpt lat="44.85795" lon="5.72362">
        <ele>818</ele>
        <time>2019-10-27T20:13:05Z</time>
      </trkpt>
      <trkpt lat="44.85832" lon="5.72357">
        <ele>816</ele>
        <time>2019-10-27T20:13:14Z</time>
      </trkpt>
      <trkpt lat="44.8587" lon="5.72346">
        <ele>799</ele>
        <time>2019-10-27T20:13:23Z</time>
      </trkpt>
      <trkpt lat="44.85902" lon="5.72329">
        <ele>812</ele>
        <time>2019-10-27T20:13:31Z</time>
      </trkpt>
      <trkpt lat="44.85915" lon="5.72319">
        <ele>811</ele>
        <time>2019-10-27T20:13:35Z</time>
      </trkpt>
      <trkpt lat="44.85955" lon="5.72262">
        <ele>799</ele>
        <time>2019-10-27T20:13:48Z</time>
      </trkpt>
      <trkpt lat="44.85967" lon="5.7225">
        <ele>812</ele>
        <time>2019-10-27T20:13:51Z</time>
      </trkpt>
      <trkpt lat="44.85989" lon="5.72176">
        <ele>815</ele>
        <time>2019-10-27T20:14:04Z</time>
      </trkpt>
      <trkpt lat="44.86001" lon="5.72101">
        <ele>807</ele>
        <time>2019-10-27T20:14:17Z</time>
      </trkpt>
      <trkpt lat="44.85984" lon="5.71992">
        <ele>819</ele>
        <time>2019-10-27T20:14:36Z</time>
      </trkpt>
      <trkpt lat="44.85958" lon="5.71904">
        <ele>814</ele>
        <time>2019-10-27T20:14:51Z</time>
      </trkpt>
      <trkpt lat="44.85917" lon="5.71828">
        <ele>819</ele>
        <time>2019-10-27T20:15:07Z</time>
      </trkpt>
      <trkpt lat="44.85897" lon="5.71799">
        <ele>832</ele>
        <time>2019-10-27T20:15:14Z</time>
      </trkpt>
      <trkpt lat="44.85876" lon="5.71762">
        <ele>835</ele>
        <time>2019-10-27T20:15:22Z</time>
      </trkpt>
      <trkpt lat="44.85901" lon="5.71731">
        <ele>838</ele>
        <time>2019-10-27T20:15:30Z</time>
      </trkpt>
      <trkpt lat="44.85961" lon="5.71707">
        <ele>834</ele>
        <time>2019-10-27T20:15:44Z</time>
      </trkpt>
      <trkpt lat="44.86022" lon="5.71709">
        <ele>828</ele>
        <time>2019-10-27T20:15:58Z</time>
      </trkpt>
      <trkpt lat="44.86066" lon="5.71702">
        <ele>827</ele>
        <time>2019-10-27T20:16:09Z</time>
      </trkpt>
      <trkpt lat="44.86102" lon="5.71708">
        <ele>813</ele>
        <time>2019-10-27T20:16:17Z</time>
      </trkpt>
      <trkpt lat="44.86132" lon="5.71698">
        <ele>811</ele>
        <time>2019-10-27T20:16:24Z</time>
      </trkpt>
      <trkpt lat="44.86146" lon="5.7168">
        <ele>813</ele>
        <time>2019-10-27T20:16:29Z</time>
      </trkpt>
      <trkpt lat="44.8617" lon="5.71632">
        <ele>805</ele>
        <time>2019-10-27T20:16:39Z</time>
      </trkpt>
      <trkpt lat="44.86188" lon="5.7156">
        <ele>811</ele>
        <time>2019-10-27T20:16:51Z</time>
      </trkpt>
      <trkpt lat="44.86172" lon="5.71501">
        <ele>818</ele>
        <time>2019-10-27T20:17:02Z</time>
      </trkpt>
      <trkpt lat="44.86159" lon="5.71471">
        <ele>828</ele>
        <time>2019-10-27T20:17:07Z</time>
      </trkpt>
      <trkpt lat="44.86138" lon="5.71443">
        <ele>831</ele>
        <time>2019-10-27T20:17:14Z</time>
      </trkpt>
      <trkpt lat="44.86129" lon="5.71369">
        <ele>834</ele>
        <time>2019-10-27T20:17:27Z</time>
      </trkpt>
      <trkpt lat="44.86151" lon="5.71286">
        <ele>827</ele>
        <time>2019-10-27T20:17:41Z</time>
      </trkpt>
      <trkpt lat="44.86148" lon="5.71229">
        <ele>822</ele>
        <time>2019-10-27T20:17:51Z</time>
      </trkpt>
      <trkpt lat="44.86138" lon="5.71192">
        <ele>823</ele>
        <time>2019-10-27T20:17:57Z</time>
      </trkpt>
      <trkpt lat="44.86091" lon="5.71088">
        <ele>820</ele>
        <time>2019-10-27T20:18:18Z</time>
      </trkpt>
      <trkpt lat="44.86048" lon="5.71033">
        <ele>834</ele>
        <time>2019-10-27T20:18:31Z</time>
      </trkpt>
      <trkpt lat="44.86039" lon="5.70984">
        <ele>832</ele>
        <time>2019-10-27T20:18:40Z</time>
      </trkpt>
      <trkpt lat="44.86041" lon="5.70964">
        <ele>832</ele>
        <time>2019-10-27T20:18:43Z</time>
      </trkpt>
      <trkpt lat="44.86045" lon="5.70963">
        <ele>831</ele>
        <time>2019-10-27T20:18:44Z</time>
      </trkpt>
      <trkpt lat="44.8606" lon="5.70948">
        <ele>830</ele>
        <time>2019-10-27T20:18:48Z</time>
      </trkpt>
      <trkpt lat="44.86081" lon="5.70932">
        <ele>827</ele>
        <time>2019-10-27T20:18:54Z</time>
      </trkpt>
      <trkpt lat="44.86098" lon="5.70904">
        <ele>817</ele>
        <time>2019-10-27T20:19:00Z</time>
      </trkpt>
      <trkpt lat="44.86111" lon="5.70888">
        <ele>812</ele>
        <time>2019-10-27T20:19:04Z</time>
      </trkpt>
      <trkpt lat="44.86099" lon="5.70866">
        <ele>812</ele>
        <time>2019-10-27T20:19:09Z</time>
      </trkpt>
      <trkpt lat="44.86063" lon="5.70856">
        <ele>821</ele>
        <time>2019-10-27T20:19:17Z</time>
      </trkpt>
      <trkpt lat="44.8603" lon="5.70852">
        <ele>822</ele>
        <time>2019-10-27T20:19:25Z</time>
      </trkpt>
      <trkpt lat="44.85978" lon="5.70826">
        <ele>808</ele>
        <time>2019-10-27T20:19:38Z</time>
      </trkpt>
      <trkpt lat="44.85859" lon="5.70799">
        <ele>799</ele>
        <time>2019-10-27T20:20:06Z</time>
      </trkpt>
      <trkpt lat="44.85842" lon="5.70798">
        <ele>799</ele>
        <time>2019-10-27T20:20:10Z</time>
      </trkpt>
      <trkpt lat="44.85942" lon="5.70749">
        <ele>784</ele>
        <time>2019-10-27T20:20:35Z</time>
      </trkpt>
      <trkpt lat="44.86076" lon="5.70759">
        <ele>791</ele>
        <time>2019-10-27T20:21:06Z</time>
      </trkpt>
      <trkpt lat="44.86106" lon="5.70759">
        <ele>792</ele>
        <time>2019-10-27T20:21:13Z</time>
      </trkpt>
      <trkpt lat="44.86145" lon="5.70754">
        <ele>790</ele>
        <time>2019-10-27T20:21:22Z</time>
      </trkpt>
      <trkpt lat="44.86178" lon="5.70753">
        <ele>781</ele>
        <time>2019-10-27T20:21:30Z</time>
      </trkpt>
      <trkpt lat="44.862" lon="5.70766">
        <ele>777</ele>
        <time>2019-10-27T20:21:35Z</time>
      </trkpt>
      <trkpt lat="44.86206" lon="5.70786">
        <ele>777</ele>
        <time>2019-10-27T20:21:39Z</time>
      </trkpt>
      <trkpt lat="44.86193" lon="5.70864">
        <ele>781</ele>
        <time>2019-10-27T20:21:52Z</time>
      </trkpt>
      <trkpt lat="44.86171" lon="5.70971">
        <ele>773</ele>
        <time>2019-10-27T20:22:11Z</time>
      </trkpt>
      <trkpt lat="44.86154" lon="5.70994">
        <ele>790</ele>
        <time>2019-10-27T20:22:16Z</time>
      </trkpt>
      <trkpt lat="44.86139" lon="5.71008">
        <ele>796</ele>
        <time>2019-10-27T20:22:20Z</time>
      </trkpt>
      <trkpt lat="44.86132" lon="5.7101">
        <ele>799</ele>
        <time>2019-10-27T20:22:22Z</time>
      </trkpt>
      <trkpt lat="44.86136" lon="5.71027">
        <ele>799</ele>
        <time>2019-10-27T20:22:25Z</time>
      </trkpt>
      <trkpt lat="44.86145" lon="5.71046">
        <ele>799</ele>
        <time>2019-10-27T20:22:29Z</time>
      </trkpt>
      <trkpt lat="44.8616" lon="5.71044">
        <ele>796</ele>
        <time>2019-10-27T20:22:32Z</time>
      </trkpt>
      <trkpt lat="44.86178" lon="5.71054">
        <ele>775</ele>
        <time>2019-10-27T20:22:37Z</time>
      </trkpt>
      <trkpt lat="44.86194" lon="5.71068">
        <ele>774</ele>
        <time>2019-10-27T20:22:41Z</time>
      </trkpt>
      <trkpt lat="44.862" lon="5.71083">
        <ele>773</ele>
        <time>2019-10-27T20:22:44Z</time>
      </trkpt>
      <trkpt lat="44.86217" lon="5.71096">
        <ele>778</ele>
        <time>2019-10-27T20:22:49Z</time>
      </trkpt>
      <trkpt lat="44.86225" lon="5.7111">
        <ele>778</ele>
        <time>2019-10-27T20:22:52Z</time>
      </trkpt>
      <trkpt lat="44.86239" lon="5.71117">
        <ele>777</ele>
        <time>2019-10-27T20:22:55Z</time>
      </trkpt>
      <trkpt lat="44.86257" lon="5.71137">
        <ele>763</ele>
        <time>2019-10-27T20:23:00Z</time>
      </trkpt>
      <trkpt lat="44.86277" lon="5.7115">
        <ele>762</ele>
        <time>2019-10-27T20:23:06Z</time>
      </trkpt>
      <trkpt lat="44.86296" lon="5.71146">
        <ele>758</ele>
        <time>2019-10-27T20:23:10Z</time>
      </trkpt>
      <trkpt lat="44.8631" lon="5.71137">
        <ele>756</ele>
        <time>2019-10-27T20:23:14Z</time>
      </trkpt>
      <trkpt lat="44.86309" lon="5.71149">
        <ele>757</ele>
        <time>2019-10-27T20:23:16Z</time>
      </trkpt>
      <trkpt lat="44.86316" lon="5.71158">
        <ele>756</ele>
        <time>2019-10-27T20:23:18Z</time>
      </trkpt>
      <trkpt lat="44.86383" lon="5.71162">
        <ele>748</ele>
        <time>2019-10-27T20:23:33Z</time>
      </trkpt>
      <trkpt lat="44.86431" lon="5.71187">
        <ele>732</ele>
        <time>2019-10-27T20:23:45Z</time>
      </trkpt>
      <trkpt lat="44.8647" lon="5.71222">
        <ele>724</ele>
        <time>2019-10-27T20:23:56Z</time>
      </trkpt>
      <trkpt lat="44.86506" lon="5.71237">
        <ele>707</ele>
        <time>2019-10-27T20:24:05Z</time>
      </trkpt>
      <trkpt lat="44.86529" lon="5.71244">
        <ele>705</ele>
        <time>2019-10-27T20:24:10Z</time>
      </trkpt>
      <trkpt lat="44.86575" lon="5.71217">
        <ele>701</ele>
        <time>2019-10-27T20:24:22Z</time>
      </trkpt>
      <trkpt lat="44.86581" lon="5.71205">
        <ele>704</ele>
        <time>2019-10-27T20:24:25Z</time>
      </trkpt>
      <trkpt lat="44.86622" lon="5.71159">
        <ele>690</ele>
        <time>2019-10-27T20:24:37Z</time>
      </trkpt>
      <trkpt lat="44.86648" lon="5.7112">
        <ele>686</ele>
        <time>2019-10-27T20:24:46Z</time>
      </trkpt>
      <trkpt lat="44.86673" lon="5.71074">
        <ele>653</ele>
        <time>2019-10-27T20:24:55Z</time>
      </trkpt>
      <trkpt lat="44.86668" lon="5.71006">
        <ele>655</ele>
        <time>2019-10-27T20:25:07Z</time>
      </trkpt>
      <trkpt lat="44.86643" lon="5.70909">
        <ele>664</ele>
        <time>2019-10-27T20:25:24Z</time>
      </trkpt>
      <trkpt lat="44.86618" lon="5.70799">
        <ele>653</ele>
        <time>2019-10-27T20:25:43Z</time>
      </trkpt>
      <trkpt lat="44.86609" lon="5.70745">
        <ele>643</ele>
        <time>2019-10-27T20:25:52Z</time>
      </trkpt>
      <trkpt lat="44.86609" lon="5.70708">
        <ele>638</ele>
        <time>2019-10-27T20:25:58Z</time>
      </trkpt>
      <trkpt lat="44.86588" lon="5.70683">
        <ele>638</ele>
        <time>2019-10-27T20:26:04Z</time>
      </trkpt>
      <trkpt lat="44.86538" lon="5.70698">
        <ele>644</ele>
        <time>2019-10-27T20:26:16Z</time>
      </trkpt>
      <trkpt lat="44.86511" lon="5.70713">
        <ele>645</ele>
        <time>2019-10-27T20:26:23Z</time>
      </trkpt>
      <trkpt lat="44.86487" lon="5.70718">
        <ele>653</ele>
        <time>2019-10-27T20:26:29Z</time>
      </trkpt>
      <trkpt lat="44.86466" lon="5.70703">
        <ele>655</ele>
        <time>2019-10-27T20:26:34Z</time>
      </trkpt>
      <trkpt lat="44.86453" lon="5.7066">
        <ele>650</ele>
        <time>2019-10-27T20:26:42Z</time>
      </trkpt>
      <trkpt lat="44.86453" lon="5.70619">
        <ele>647</ele>
        <time>2019-10-27T20:26:49Z</time>
      </trkpt>
      <trkpt lat="44.86409" lon="5.70572">
        <ele>656</ele>
        <time>2019-10-27T20:27:02Z</time>
      </trkpt>
      <trkpt lat="44.86387" lon="5.70529">
        <ele>659</ele>
        <time>2019-10-27T20:27:11Z</time>
      </trkpt>
      <trkpt lat="44.86368" lon="5.70505">
        <ele>662</ele>
        <time>2019-10-27T20:27:17Z</time>
      </trkpt>
      <trkpt lat="44.86368" lon="5.70477">
        <ele>661</ele>
        <time>2019-10-27T20:27:21Z</time>
      </trkpt>
      <trkpt lat="44.86374" lon="5.70441">
        <ele>661</ele>
        <time>2019-10-27T20:27:27Z</time>
      </trkpt>
      <trkpt lat="44.86391" lon="5.70415">
        <ele>659</ele>
        <time>2019-10-27T20:27:33Z</time>
      </trkpt>
      <trkpt lat="44.86399" lon="5.70394">
        <ele>659</ele>
        <time>2019-10-27T20:27:37Z</time>
      </trkpt>
      <trkpt lat="44.86393" lon="5.70355">
        <ele>663</ele>
        <time>2019-10-27T20:27:44Z</time>
      </trkpt>
      <trkpt lat="44.86377" lon="5.70327">
        <ele>666</ele>
        <time>2019-10-27T20:27:50Z</time>
      </trkpt>
      <trkpt lat="44.8637" lon="5.70306">
        <ele>667</ele>
        <time>2019-10-27T20:27:53Z</time>
      </trkpt>
      <trkpt lat="44.86405" lon="5.70274">
        <ele>662</ele>
        <time>2019-10-27T20:28:03Z</time>
      </trkpt>
      <trkpt lat="44.86406" lon="5.70265">
        <ele>661</ele>
        <time>2019-10-27T20:28:05Z</time>
      </trkpt>
      <trkpt lat="44.86387" lon="5.70259">
        <ele>664</ele>
        <time>2019-10-27T20:28:09Z</time>
      </trkpt>
      <trkpt lat="44.86353" lon="5.70239">
        <ele>665</ele>
        <time>2019-10-27T20:28:18Z</time>
      </trkpt>
      <trkpt lat="44.8635" lon="5.70196">
        <ele>662</ele>
        <time>2019-10-27T20:28:25Z</time>
      </trkpt>
      <trkpt lat="44.86352" lon="5.70183">
        <ele>662</ele>
        <time>2019-10-27T20:28:27Z</time>
      </trkpt>
      <trkpt lat="44.86341" lon="5.70147">
        <ele>658</ele>
        <time>2019-10-27T20:28:34Z</time>
      </trkpt>
      <trkpt lat="44.86329" lon="5.70087">
        <ele>663</ele>
        <time>2019-10-27T20:28:44Z</time>
      </trkpt>
      <trkpt lat="44.86345" lon="5.70029">
        <ele>654</ele>
        <time>2019-10-27T20:28:54Z</time>
      </trkpt>
      <trkpt lat="44.86365" lon="5.69995">
        <ele>652</ele>
        <time>2019-10-27T20:29:02Z</time>
      </trkpt>
      <trkpt lat="44.86399" lon="5.69928">
        <ele>646</ele>
        <time>2019-10-27T20:29:15Z</time>
      </trkpt>
      <trkpt lat="44.86394" lon="5.69909">
        <ele>643</ele>
        <time>2019-10-27T20:29:19Z</time>
      </trkpt>
      <trkpt lat="44.86405" lon="5.69892">
        <ele>642</ele>
        <time>2019-10-27T20:29:22Z</time>
      </trkpt>
      <trkpt lat="44.86437" lon="5.69875">
        <ele>628</ele>
        <time>2019-10-27T20:29:30Z</time>
      </trkpt>
      <trkpt lat="44.86489" lon="5.69824">
        <ele>616</ele>
        <time>2019-10-27T20:29:45Z</time>
      </trkpt>
      <trkpt lat="44.86513" lon="5.69781">
        <ele>604</ele>
        <time>2019-10-27T20:29:54Z</time>
      </trkpt>
      <trkpt lat="44.86533" lon="5.69777">
        <ele>601</ele>
        <time>2019-10-27T20:29:59Z</time>
      </trkpt>
      <trkpt lat="44.86533" lon="5.69817">
        <ele>601</ele>
        <time>2019-10-27T20:30:06Z</time>
      </trkpt>
      <trkpt lat="44.86557" lon="5.69817">
        <ele>597</ele>
        <time>2019-10-27T20:30:11Z</time>
      </trkpt>
      <trkpt lat="44.8656" lon="5.69865">
        <ele>601</ele>
        <time>2019-10-27T20:30:19Z</time>
      </trkpt>
      <trkpt lat="44.86587" lon="5.69875">
        <ele>586</ele>
        <time>2019-10-27T20:30:26Z</time>
      </trkpt>
      <trkpt lat="44.8661" lon="5.69912">
        <ele>588</ele>
        <time>2019-10-27T20:30:34Z</time>
      </trkpt>
      <trkpt lat="44.86635" lon="5.69961">
        <ele>595</ele>
        <time>2019-10-27T20:30:44Z</time>
      </trkpt>
      <trkpt lat="44.86638" lon="5.7001">
        <ele>603</ele>
        <time>2019-10-27T20:30:52Z</time>
      </trkpt>
      <trkpt lat="44.86657" lon="5.7003">
        <ele>602</ele>
        <time>2019-10-27T20:30:58Z</time>
      </trkpt>
      <trkpt lat="44.86705" lon="5.70015">
        <ele>578</ele>
        <time>2019-10-27T20:31:09Z</time>
      </trkpt>
      <trkpt lat="44.86715" lon="5.70047">
        <ele>576</ele>
        <time>2019-10-27T20:31:15Z</time>
      </trkpt>
      <trkpt lat="44.86729" lon="5.70113">
        <ele>574</ele>
        <time>2019-10-27T20:31:26Z</time>
      </trkpt>
      <trkpt lat="44.8673" lon="5.70178">
        <ele>570</ele>
        <time>2019-10-27T20:31:37Z</time>
      </trkpt>
      <trkpt lat="44.86743" lon="5.70219">
        <ele>570</ele>
        <time>2019-10-27T20:31:44Z</time>
      </trkpt>
      <trkpt lat="44.86765" lon="5.70259">
        <ele>545</ele>
        <time>2019-10-27T20:31:53Z</time>
      </trkpt>
      <trkpt lat="44.86778" lon="5.70315">
        <ele>542</ele>
        <time>2019-10-27T20:32:03Z</time>
      </trkpt>
      <trkpt lat="44.86813" lon="5.70354">
        <ele>535</ele>
        <time>2019-10-27T20:32:13Z</time>
      </trkpt>
      <trkpt lat="44.86838" lon="5.70375">
        <ele>509</ele>
        <time>2019-10-27T20:32:20Z</time>
      </trkpt>
      <trkpt lat="44.8684" lon="5.70498">
        <ele>513</ele>
        <time>2019-10-27T20:32:40Z</time>
      </trkpt>
      <trkpt lat="44.86867" lon="5.70525">
        <ele>503</ele>
        <time>2019-10-27T20:32:48Z</time>
      </trkpt>
      <trkpt lat="44.86858" lon="5.70562">
        <ele>504</ele>
        <time>2019-10-27T20:32:54Z</time>
      </trkpt>
      <trkpt lat="44.86834" lon="5.70564">
        <ele>508</ele>
        <time>2019-10-27T20:33:00Z</time>
      </trkpt>
      <trkpt lat="44.86832" lon="5.70587">
        <ele>518</ele>
        <time>2019-10-27T20:33:04Z</time>
      </trkpt>
      <trkpt lat="44.86808" lon="5.70633">
        <ele>535</ele>
        <time>2019-10-27T20:33:13Z</time>
      </trkpt>
      <trkpt lat="44.86789" lon="5.70718">
        <ele>542</ele>
        <time>2019-10-27T20:33:28Z</time>
      </trkpt>
      <trkpt lat="44.86787" lon="5.70787">
        <ele>542</ele>
        <time>2019-10-27T20:33:39Z</time>
      </trkpt>
      <trkpt lat="44.86815" lon="5.70815">
        <ele>528</ele>
        <time>2019-10-27T20:33:47Z</time>
      </trkpt>
      <trkpt lat="44.86867" lon="5.70857">
        <ele>491</ele>
        <time>2019-10-27T20:34:01Z</time>
      </trkpt>
      <trkpt lat="44.86938" lon="5.70919">
        <ele>512</ele>
        <time>2019-10-27T20:34:21Z</time>
      </trkpt>
      <trkpt lat="44.86967" lon="5.7094">
        <ele>526</ele>
        <time>2019-10-27T20:34:29Z</time>
      </trkpt>
      <trkpt lat="44.86994" lon="5.70943">
        <ele>531</ele>
        <time>2019-10-27T20:34:35Z</time>
      </trkpt>
      <trkpt lat="44.87026" lon="5.70887">
        <ele>530</ele>
        <time>2019-10-27T20:34:47Z</time>
      </trkpt>
      <trkpt lat="44.87025" lon="5.70864">
        <ele>526</ele>
        <time>2019-10-27T20:34:51Z</time>
      </trkpt>
      <trkpt lat="44.87034" lon="5.70839">
        <ele>523</ele>
        <time>2019-10-27T20:34:55Z</time>
      </trkpt>
      <trkpt lat="44.87052" lon="5.70827">
        <ele>510</ele>
        <time>2019-10-27T20:35:00Z</time>
      </trkpt>
      <trkpt lat="44.87089" lon="5.70855">
        <ele>539</ele>
        <time>2019-10-27T20:35:10Z</time>
      </trkpt>
      <trkpt lat="44.87101" lon="5.70856">
        <ele>541</ele>
        <time>2019-10-27T20:35:12Z</time>
      </trkpt>
      <trkpt lat="44.87106" lon="5.70837">
        <ele>539</ele>
        <time>2019-10-27T20:35:16Z</time>
      </trkpt>
      <trkpt lat="44.87106" lon="5.70817">
        <ele>526</ele>
        <time>2019-10-27T20:35:19Z</time>
      </trkpt>
      <trkpt lat="44.87143" lon="5.70797">
        <ele>528</ele>
        <time>2019-10-27T20:35:28Z</time>
      </trkpt>
      <trkpt lat="44.8716" lon="5.70785">
        <ele>529</ele>
        <time>2019-10-27T20:35:33Z</time>
      </trkpt>
      <trkpt lat="44.87165" lon="5.70746">
        <ele>528</ele>
        <time>2019-10-27T20:35:39Z</time>
      </trkpt>
      <trkpt lat="44.87158" lon="5.70722">
        <ele>522</ele>
        <time>2019-10-27T20:35:44Z</time>
      </trkpt>
      <trkpt lat="44.8714" lon="5.70703">
        <ele>519</ele>
        <time>2019-10-27T20:35:49Z</time>
      </trkpt>
      <trkpt lat="44.87169" lon="5.70638">
        <ele>539</ele>
        <time>2019-10-27T20:36:02Z</time>
      </trkpt>
      <trkpt lat="44.87201" lon="5.70582">
        <ele>535</ele>
        <time>2019-10-27T20:36:14Z</time>
      </trkpt>
      <trkpt lat="44.87225" lon="5.70529">
        <ele>538</ele>
        <time>2019-10-27T20:36:24Z</time>
      </trkpt>
      <trkpt lat="44.87221" lon="5.70483">
        <ele>535</ele>
        <time>2019-10-27T20:36:32Z</time>
      </trkpt>
      <trkpt lat="44.87226" lon="5.7046">
        <ele>535</ele>
        <time>2019-10-27T20:36:36Z</time>
      </trkpt>
      <trkpt lat="44.87242" lon="5.70431">
        <ele>539</ele>
        <time>2019-10-27T20:36:42Z</time>
      </trkpt>
      <trkpt lat="44.87315" lon="5.70417">
        <ele>557</ele>
        <time>2019-10-27T20:36:59Z</time>
      </trkpt>
      <trkpt lat="44.87296" lon="5.70481">
        <ele>555</ele>
        <time>2019-10-27T20:37:10Z</time>
      </trkpt>
      <trkpt lat="44.87295" lon="5.70516">
        <ele>559</ele>
        <time>2019-10-27T20:37:16Z</time>
      </trkpt>
      <trkpt lat="44.87323" lon="5.70567">
        <ele>567</ele>
        <time>2019-10-27T20:37:27Z</time>
      </trkpt>
      <trkpt lat="44.87324" lon="5.70605">
        <ele>573</ele>
        <time>2019-10-27T20:37:33Z</time>
      </trkpt>
      <trkpt lat="44.87304" lon="5.70649">
        <ele>575</ele>
        <time>2019-10-27T20:37:42Z</time>
      </trkpt>
      <trkpt lat="44.87307" lon="5.70665">
        <ele>577</ele>
        <time>2019-10-27T20:37:45Z</time>
      </trkpt>
      <trkpt lat="44.87339" lon="5.70642">
        <ele>590</ele>
        <time>2019-10-27T20:37:53Z</time>
      </trkpt>
      <trkpt lat="44.87365" lon="5.70643">
        <ele>592</ele>
        <time>2019-10-27T20:37:59Z</time>
      </trkpt>
      <trkpt lat="44.87391" lon="5.70588">
        <ele>592</ele>
        <time>2019-10-27T20:38:10Z</time>
      </trkpt>
      <trkpt lat="44.8741" lon="5.70595">
        <ele>594</ele>
        <time>2019-10-27T20:38:15Z</time>
      </trkpt>
      <trkpt lat="44.87425" lon="5.70689">
        <ele>613</ele>
        <time>2019-10-27T20:38:30Z</time>
      </trkpt>
      <trkpt lat="44.87415" lon="5.70784">
        <ele>606</ele>
        <time>2019-10-27T20:38:46Z</time>
      </trkpt>
      <trkpt lat="44.87458" lon="5.70827">
        <ele>623</ele>
        <time>2019-10-27T20:38:59Z</time>
      </trkpt>
      <trkpt lat="44.87485" lon="5.70844">
        <ele>630</ele>
        <time>2019-10-27T20:39:06Z</time>
      </trkpt>
      <trkpt lat="44.87515" lon="5.70848">
        <ele>640</ele>
        <time>2019-10-27T20:39:13Z</time>
      </trkpt>
      <trkpt lat="44.87535" lon="5.70844">
        <ele>642</ele>
        <time>2019-10-27T20:39:17Z</time>
      </trkpt>
      <trkpt lat="44.87531" lon="5.70911">
        <ele>644</ele>
        <time>2019-10-27T20:39:28Z</time>
      </trkpt>
      <trkpt lat="44.87516" lon="5.70939">
        <ele>653</ele>
        <time>2019-10-27T20:39:34Z</time>
      </trkpt>
      <trkpt lat="44.87481" lon="5.70969">
        <ele>644</ele>
        <time>2019-10-27T20:39:44Z</time>
      </trkpt>
      <trkpt lat="44.87449" lon="5.70984">
        <ele>641</ele>
        <time>2019-10-27T20:39:52Z</time>
      </trkpt>
      <trkpt lat="44.87428" lon="5.71003">
        <ele>646</ele>
        <time>2019-10-27T20:39:58Z</time>
      </trkpt>
      <trkpt lat="44.87413" lon="5.71031">
        <ele>638</ele>
        <time>2019-10-27T20:40:03Z</time>
      </trkpt>
      <trkpt lat="44.87515" lon="5.70966">
        <ele>658</ele>
        <time>2019-10-27T20:40:29Z</time>
      </trkpt>
      <trkpt lat="44.87546" lon="5.7097">
        <ele>662</ele>
        <time>2019-10-27T20:40:37Z</time>
      </trkpt>
      <trkpt lat="44.876" lon="5.70941">
        <ele>674</ele>
        <time>2019-10-27T20:40:50Z</time>
      </trkpt>
      <trkpt lat="44.87638" lon="5.70931">
        <ele>679</ele>
        <time>2019-10-27T20:40:59Z</time>
      </trkpt>
      <trkpt lat="44.87684" lon="5.70886">
        <ele>681</ele>
        <time>2019-10-27T20:41:12Z</time>
      </trkpt>
      <trkpt lat="44.8771" lon="5.70877">
        <ele>683</ele>
        <time>2019-10-27T20:41:19Z</time>
      </trkpt>
      <trkpt lat="44.87732" lon="5.7081">
        <ele>678</ele>
        <time>2019-10-27T20:41:31Z</time>
      </trkpt>
      <trkpt lat="44.8776" lon="5.70688">
        <ele>689</ele>
        <time>2019-10-27T20:41:52Z</time>
      </trkpt>
      <trkpt lat="44.87783" lon="5.70668">
        <ele>691</ele>
        <time>2019-10-27T20:41:58Z</time>
      </trkpt>
      <trkpt lat="44.87789" lon="5.70617">
        <ele>692</ele>
        <time>2019-10-27T20:42:07Z</time>
      </trkpt>
      <trkpt lat="44.87798" lon="5.70576">
        <ele>692</ele>
        <time>2019-10-27T20:42:14Z</time>
      </trkpt>
      <trkpt lat="44.8783" lon="5.7052">
        <ele>693</ele>
        <time>2019-10-27T20:42:26Z</time>
      </trkpt>
      <trkpt lat="44.87869" lon="5.70479">
        <ele>695</ele>
        <time>2019-10-27T20:42:37Z</time>
      </trkpt>
      <trkpt lat="44.88021" lon="5.70417">
        <ele>706</ele>
        <time>2019-10-27T20:43:14Z</time>
      </trkpt>
      <trkpt lat="44.88131" lon="5.70452">
        <ele>701</ele>
        <time>2019-10-27T20:43:41Z</time>
      </trkpt>
      <trkpt lat="44.88204" lon="5.70456">
        <ele>699</ele>
        <time>2019-10-27T20:43:58Z</time>
      </trkpt>
      <trkpt lat="44.88266" lon="5.70429">
        <ele>705</ele>
        <time>2019-10-27T20:44:13Z</time>
      </trkpt>
      <trkpt lat="44.88293" lon="5.7039">
        <ele>709</ele>
        <time>2019-10-27T20:44:22Z</time>
      </trkpt>
      <trkpt lat="44.88285" lon="5.70293">
        <ele>703</ele>
        <time>2019-10-27T20:44:38Z</time>
      </trkpt>
      <trkpt lat="44.88358" lon="5.70211">
        <ele>710</ele>
        <time>2019-10-27T20:45:00Z</time>
      </trkpt>
      <trkpt lat="44.88449" lon="5.70164">
        <ele>712</ele>
        <time>2019-10-27T20:45:22Z</time>
      </trkpt>
      <trkpt lat="44.88533" lon="5.69992">
        <ele>711</ele>
        <time>2019-10-27T20:45:57Z</time>
      </trkpt>
      <trkpt lat="44.88874" lon="5.69992">
        <ele>734</ele>
        <time>2019-10-27T20:47:17Z</time>
      </trkpt>
      <trkpt lat="44.89043" lon="5.70024">
        <ele>761</ele>
        <time>2019-10-27T20:47:56Z</time>
      </trkpt>
      <trkpt lat="44.89103" lon="5.70047">
        <ele>767</ele>
        <time>2019-10-27T20:48:11Z</time>
      </trkpt>
      <trkpt lat="44.8934" lon="5.70055">
        <ele>791</ele>
        <time>2019-10-27T20:49:06Z</time>
      </trkpt>
      <trkpt lat="44.89423" lon="5.70016">
        <ele>794</ele>
        <time>2019-10-27T20:49:27Z</time>
      </trkpt>
      <trkpt lat="44.89493" lon="5.70035">
        <ele>806</ele>
        <time>2019-10-27T20:49:43Z</time>
      </trkpt>
      <trkpt lat="44.89528" lon="5.69992">
        <ele>796</ele>
        <time>2019-10-27T20:49:54Z</time>
      </trkpt>
      <trkpt lat="44.8958" lon="5.69969">
        <ele>799</ele>
        <time>2019-10-27T20:50:07Z</time>
      </trkpt>
      <trkpt lat="44.89628" lon="5.70003">
        <ele>826</ele>
        <time>2019-10-27T20:50:19Z</time>
      </trkpt>
      <trkpt lat="44.89679" lon="5.70014">
        <ele>826</ele>
        <time>2019-10-27T20:50:31Z</time>
      </trkpt>
      <trkpt lat="44.89704" lon="5.7003">
        <ele>830</ele>
        <time>2019-10-27T20:50:38Z</time>
      </trkpt>
      <trkpt lat="44.89744" lon="5.70026">
        <ele>828</ele>
        <time>2019-10-27T20:50:47Z</time>
      </trkpt>
      <trkpt lat="44.89776" lon="5.70041">
        <ele>836</ele>
        <time>2019-10-27T20:50:55Z</time>
      </trkpt>
      <trkpt lat="44.90043" lon="5.69995">
        <ele>845</ele>
        <time>2019-10-27T20:51:58Z</time>
      </trkpt>
      <trkpt lat="44.9007" lon="5.7001">
        <ele>860</ele>
        <time>2019-10-27T20:52:05Z</time>
      </trkpt>
      <trkpt lat="44.90111" lon="5.69983">
        <ele>849</ele>
        <time>2019-10-27T20:52:15Z</time>
      </trkpt>
      <trkpt lat="44.90173" lon="5.70014">
        <ele>867</ele>
        <time>2019-10-27T20:52:31Z</time>
      </trkpt>
      <trkpt lat="44.90218" lon="5.70018">
        <ele>872</ele>
        <time>2019-10-27T20:52:41Z</time>
      </trkpt>
      <trkpt lat="44.90264" lon="5.69999">
        <ele>861</ele>
        <time>2019-10-27T20:52:52Z</time>
      </trkpt>
      <trkpt lat="44.9033" lon="5.7001">
        <ele>874</ele>
        <time>2019-10-27T20:53:08Z</time>
      </trkpt>
      <trkpt lat="44.90397" lon="5.69987">
        <ele>867</ele>
        <time>2019-10-27T20:53:24Z</time>
      </trkpt>
      <trkpt lat="44.90427" lon="5.70003">
        <ele>883</ele>
        <time>2019-10-27T20:53:31Z</time>
      </trkpt>
      <trkpt lat="44.90449" lon="5.69999">
        <ele>872</ele>
        <time>2019-10-27T20:53:37Z</time>
      </trkpt>
      <trkpt lat="44.90573" lon="5.7001">
        <ele>895</ele>
        <time>2019-10-27T20:54:06Z</time>
      </trkpt>
      <trkpt lat="44.90645" lon="5.69983">
        <ele>887</ele>
        <time>2019-10-27T20:54:23Z</time>
      </trkpt>
      <trkpt lat="44.90721" lon="5.7001">
        <ele>908</ele>
        <time>2019-10-27T20:54:41Z</time>
      </trkpt>
      <trkpt lat="44.90783" lon="5.7001">
        <ele>909</ele>
        <time>2019-10-27T20:54:56Z</time>
      </trkpt>
      <trkpt lat="44.90931" lon="5.70057">
        <ele>919</ele>
        <time>2019-10-27T20:55:31Z</time>
      </trkpt>
      <trkpt lat="44.90982" lon="5.70041">
        <ele>918</ele>
        <time>2019-10-27T20:55:43Z</time>
      </trkpt>
      <trkpt lat="44.9102" lon="5.70045">
        <ele>929</ele>
        <time>2019-10-27T20:55:52Z</time>
      </trkpt>
      <trkpt lat="44.91082" lon="5.69995">
        <ele>917</ele>
        <time>2019-10-27T20:56:09Z</time>
      </trkpt>
      <trkpt lat="44.91157" lon="5.70003">
        <ele>935</ele>
        <time>2019-10-27T20:56:27Z</time>
      </trkpt>
      <trkpt lat="44.91249" lon="5.69967">
        <ele>931</ele>
        <time>2019-10-27T20:56:49Z</time>
      </trkpt>
      <trkpt lat="44.91289" lon="5.69917">
        <ele>937</ele>
        <time>2019-10-27T20:57:01Z</time>
      </trkpt>
      <trkpt lat="44.91325" lon="5.69921">
        <ele>939</ele>
        <time>2019-10-27T20:57:10Z</time>
      </trkpt>
      <trkpt lat="44.91343" lon="5.69897">
        <ele>934</ele>
        <time>2019-10-27T20:57:16Z</time>
      </trkpt>
      <trkpt lat="44.91378" lon="5.6987">
        <ele>932</ele>
        <time>2019-10-27T20:57:25Z</time>
      </trkpt>
      <trkpt lat="44.91413" lon="5.69862">
        <ele>933</ele>
        <time>2019-10-27T20:57:33Z</time>
      </trkpt>
      <trkpt lat="44.91455" lon="5.69868">
        <ele>940</ele>
        <time>2019-10-27T20:57:43Z</time>
      </trkpt>
      <trkpt lat="44.91482" lon="5.69897">
        <ele>945</ele>
        <time>2019-10-27T20:57:51Z</time>
      </trkpt>
      <trkpt lat="44.91473" lon="5.69905">
        <ele>946</ele>
        <time>2019-10-27T20:57:53Z</time>
      </trkpt>
      <trkpt lat="44.91438" lon="5.69888">
        <ele>943</ele>
        <time>2019-10-27T20:58:02Z</time>
      </trkpt>
      <trkpt lat="44.9139" lon="5.69909">
        <ele>940</ele>
        <time>2019-10-27T20:58:14Z</time>
      </trkpt>
      <trkpt lat="44.91342" lon="5.69962">
        <ele>959</ele>
        <time>2019-10-27T20:58:28Z</time>
      </trkpt>
      <trkpt lat="44.91283" lon="5.7001">
        <ele>970</ele>
        <time>2019-10-27T20:58:44Z</time>
      </trkpt>
      <trkpt lat="44.91188" lon="5.701">
        <ele>985</ele>
        <time>2019-10-27T20:59:11Z</time>
      </trkpt>
      <trkpt lat="44.91112" lon="5.70129">
        <ele>979</ele>
        <time>2019-10-27T20:59:29Z</time>
      </trkpt>
      <trkpt lat="44.91071" lon="5.70178">
        <ele>993</ele>
        <time>2019-10-27T20:59:42Z</time>
      </trkpt>
      <trkpt lat="44.91001" lon="5.70213">
        <ele>997</ele>
        <time>2019-10-27T20:59:59Z</time>
      </trkpt>
      <trkpt lat="44.90969" lon="5.70246">
        <ele>992</ele>
        <time>2019-10-27T21:00:08Z</time>
      </trkpt>
      <trkpt lat="44.9094" lon="5.70287">
        <ele>1016</ele>
        <time>2019-10-27T21:00:18Z</time>
      </trkpt>
      <trkpt lat="44.90909" lon="5.7027">
        <ele>1004</ele>
        <time>2019-10-27T21:00:26Z</time>
      </trkpt>
      <trkpt lat="44.90848" lon="5.70287">
        <ele>1010</ele>
        <time>2019-10-27T21:00:40Z</time>
      </trkpt>
      <trkpt lat="44.90806" lon="5.7032">
        <ele>1012</ele>
        <time>2019-10-27T21:00:51Z</time>
      </trkpt>
      <trkpt lat="44.90758" lon="5.70334">
        <ele>1022</ele>
        <time>2019-10-27T21:01:03Z</time>
      </trkpt>
      <trkpt lat="44.90715" lon="5.70363">
        <ele>1026</ele>
        <time>2019-10-27T21:01:14Z</time>
      </trkpt>
      <trkpt lat="44.90697" lon="5.70392">
        <ele>1031</ele>
        <time>2019-10-27T21:01:20Z</time>
      </trkpt>
      <trkpt lat="44.90641" lon="5.70416">
        <ele>1030</ele>
        <time>2019-10-27T21:01:34Z</time>
      </trkpt>
      <trkpt lat="44.90577" lon="5.70418">
        <ele>1039</ele>
        <time>2019-10-27T21:01:49Z</time>
      </trkpt>
      <trkpt lat="44.90506" lon="5.70447">
        <ele>1047</ele>
        <time>2019-10-27T21:02:06Z</time>
      </trkpt>
      <trkpt lat="44.90436" lon="5.7048">
        <ele>1051</ele>
        <time>2019-10-27T21:02:23Z</time>
      </trkpt>
      <trkpt lat="44.90406" lon="5.70476">
        <ele>1048</ele>
        <time>2019-10-27T21:02:30Z</time>
      </trkpt>
      <trkpt lat="44.9019" lon="5.70491">
        <ele>1039</ele>
        <time>2019-10-27T21:03:21Z</time>
      </trkpt>
      <trkpt lat="44.90128" lon="5.70526">
        <ele>1061</ele>
        <time>2019-10-27T21:03:36Z</time>
      </trkpt>
      <trkpt lat="44.90085" lon="5.70511">
        <ele>1048</ele>
        <time>2019-10-27T21:03:47Z</time>
      </trkpt>
      <trkpt lat="44.89948" lon="5.70526">
        <ele>1045</ele>
        <time>2019-10-27T21:04:19Z</time>
      </trkpt>
      <trkpt lat="44.89897" lon="5.70553">
        <ele>1045</ele>
        <time>2019-10-27T21:04:32Z</time>
      </trkpt>
      <trkpt lat="44.89864" lon="5.70538">
        <ele>1038</ele>
        <time>2019-10-27T21:04:40Z</time>
      </trkpt>
      <trkpt lat="44.89719" lon="5.70577">
        <ele>1022</ele>
        <time>2019-10-27T21:05:14Z</time>
      </trkpt>
      <trkpt lat="44.89681" lon="5.70631">
        <ele>1056</ele>
        <time>2019-10-27T21:05:27Z</time>
      </trkpt>
      <trkpt lat="44.89598" lon="5.70616">
        <ele>1044</ele>
        <time>2019-10-27T21:05:46Z</time>
      </trkpt>
      <trkpt lat="44.89457" lon="5.70651">
        <ele>1040</ele>
        <time>2019-10-27T21:06:20Z</time>
      </trkpt>
      <trkpt lat="44.89325" lon="5.70737">
        <ele>1058</ele>
        <time>2019-10-27T21:06:54Z</time>
      </trkpt>
      <trkpt lat="44.89285" lon="5.70752">
        <ele>1078</ele>
        <time>2019-10-27T21:07:03Z</time>
      </trkpt>
      <trkpt lat="44.89181" lon="5.70854">
        <ele>1090</ele>
        <time>2019-10-27T21:07:33Z</time>
      </trkpt>
      <trkpt lat="44.89106" lon="5.70943">
        <ele>1102</ele>
        <time>2019-10-27T21:07:56Z</time>
      </trkpt>
      <trkpt lat="44.88995" lon="5.71037">
        <ele>1078</ele>
        <time>2019-10-27T21:08:26Z</time>
      </trkpt>
      <trkpt lat="44.88974" lon="5.71138">
        <ele>1106</ele>
        <time>2019-10-27T21:08:44Z</time>
      </trkpt>
      <trkpt lat="44.88804" lon="5.71239">
        <ele>1122</ele>
        <time>2019-10-27T21:09:27Z</time>
      </trkpt>
      <trkpt lat="44.88712" lon="5.71239">
        <ele>1121</ele>
        <time>2019-10-27T21:09:48Z</time>
      </trkpt>
      <trkpt lat="44.88629" lon="5.71314">
        <ele>1140</ele>
        <time>2019-10-27T21:10:11Z</time>
      </trkpt>
      <trkpt lat="44.88516" lon="5.71427">
        <ele>1162</ele>
        <time>2019-10-27T21:10:43Z</time>
      </trkpt>
      <trkpt lat="44.88491" lon="5.71485">
        <ele>1167</ele>
        <time>2019-10-27T21:10:55Z</time>
      </trkpt>
      <trkpt lat="44.88394" lon="5.71528">
        <ele>1160</ele>
        <time>2019-10-27T21:11:18Z</time>
      </trkpt>
      <trkpt lat="44.88319" lon="5.71633">
        <ele>1162</ele>
        <time>2019-10-27T21:11:43Z</time>
      </trkpt>
      <trkpt lat="44.88257" lon="5.71688">
        <ele>1170</ele>
        <time>2019-10-27T21:12:00Z</time>
      </trkpt>
      <trkpt lat="44.88243" lon="5.71735">
        <ele>1162</ele>
        <time>2019-10-27T21:12:09Z</time>
      </trkpt>
      <trkpt lat="44.88184" lon="5.71773">
        <ele>1150</ele>
        <time>2019-10-27T21:12:24Z</time>
      </trkpt>
      <trkpt lat="44.88328" lon="5.72074">
        <ele>1071</ele>
        <time>2019-10-27T21:13:24Z</time>
      </trkpt>
      <trkpt lat="44.88305" lon="5.72074">
        <ele>1071</ele>
        <time>2019-10-27T21:13:29Z</time>
      </trkpt>
      <trkpt lat="44.88309" lon="5.72103">
        <ele>1048</ele>
        <time>2019-10-27T21:13:34Z</time>
      </trkpt>
      <trkpt lat="44.88296" lon="5.72117">
        <ele>1042</ele>
        <time>2019-10-27T21:13:38Z</time>
      </trkpt>
      <trkpt lat="44.88321" lon="5.7215">
        <ele>1036</ele>
        <time>2019-10-27T21:13:46Z</time>
      </trkpt>
      <trkpt lat="44.88375" lon="5.72239">
        <ele>1014</ele>
        <time>2019-10-27T21:14:05Z</time>
      </trkpt>
      <trkpt lat="44.88319" lon="5.72261">
        <ele>985</ele>
        <time>2019-10-27T21:14:19Z</time>
      </trkpt>
      <trkpt lat="44.88285" lon="5.72257">
        <ele>979</ele>
        <time>2019-10-27T21:14:27Z</time>
      </trkpt>
      <trkpt lat="44.88261" lon="5.72284">
        <ele>975</ele>
        <time>2019-10-27T21:14:34Z</time>
      </trkpt>
      <trkpt lat="44.88222" lon="5.72282">
        <ele>960</ele>
        <time>2019-10-27T21:14:43Z</time>
      </trkpt>
      <trkpt lat="44.88238" lon="5.7238">
        <ele>940</ele>
        <time>2019-10-27T21:15:00Z</time>
      </trkpt>
      <trkpt lat="44.88229" lon="5.72385">
        <ele>939</ele>
        <time>2019-10-27T21:15:02Z</time>
      </trkpt>
      <trkpt lat="44.88173" lon="5.72357">
        <ele>934</ele>
        <time>2019-10-27T21:15:16Z</time>
      </trkpt>
      <trkpt lat="44.88178" lon="5.72427">
        <ele>917</ele>
        <time>2019-10-27T21:15:28Z</time>
      </trkpt>
      <trkpt lat="44.88108" lon="5.72357">
        <ele>901</ele>
        <time>2019-10-27T21:15:48Z</time>
      </trkpt>
      <trkpt lat="44.88106" lon="5.72498">
        <ele>881</ele>
        <time>2019-10-27T21:16:11Z</time>
      </trkpt>
      <trkpt lat="44.88026" lon="5.72414">
        <ele>856</ele>
        <time>2019-10-27T21:16:34Z</time>
      </trkpt>
      <trkpt lat="44.88016" lon="5.72558">
        <ele>833</ele>
        <time>2019-10-27T21:16:58Z</time>
      </trkpt>
      <trkpt lat="44.88003" lon="5.7256">
        <ele>830</ele>
        <time>2019-10-27T21:17:01Z</time>
      </trkpt>
      <trkpt lat="44.87983" lon="5.72533">
        <ele>813</ele>
        <time>2019-10-27T21:17:08Z</time>
      </trkpt>
      <trkpt lat="44.87968" lon="5.72548">
        <ele>809</ele>
        <time>2019-10-27T21:17:12Z</time>
      </trkpt>
      <trkpt lat="44.87957" lon="5.72579">
        <ele>805</ele>
        <time>2019-10-27T21:17:18Z</time>
      </trkpt>
      <trkpt lat="44.87915" lon="5.7257">
        <ele>785</ele>
        <time>2019-10-27T21:17:28Z</time>
      </trkpt>
      <trkpt lat="44.87898" lon="5.72515">
        <ele>782</ele>
        <time>2019-10-27T21:17:38Z</time>
      </trkpt>
      <trkpt lat="44.87876" lon="5.72484">
        <ele>779</ele>
        <time>2019-10-27T21:17:45Z</time>
      </trkpt>
      <trkpt lat="44.87845" lon="5.72482">
        <ele>771</ele>
        <time>2019-10-27T21:17:52Z</time>
      </trkpt>
      <trkpt lat="44.87826" lon="5.72492">
        <ele>757</ele>
        <time>2019-10-27T21:17:57Z</time>
      </trkpt>
      <trkpt lat="44.87815" lon="5.72474">
        <ele>756</ele>
        <time>2019-10-27T21:18:01Z</time>
      </trkpt>
      <trkpt lat="44.87774" lon="5.72462">
        <ele>751</ele>
        <time>2019-10-27T21:18:10Z</time>
      </trkpt>
      <trkpt lat="44.87716" lon="5.72433">
        <ele>736</ele>
        <time>2019-10-27T21:18:25Z</time>
      </trkpt>
      <trkpt lat="44.87639" lon="5.72406">
        <ele>722</ele>
        <time>2019-10-27T21:18:43Z</time>
      </trkpt>
      <trkpt lat="44.87623" lon="5.72365">
        <ele>720</ele>
        <time>2019-10-27T21:18:51Z</time>
      </trkpt>
      <trkpt lat="44.87614" lon="5.72287">
        <ele>724</ele>
        <time>2019-10-27T21:19:04Z</time>
      </trkpt>
      <trkpt lat="44.876" lon="5.72258">
        <ele>719</ele>
        <time>2019-10-27T21:19:10Z</time>
      </trkpt>
      <trkpt lat="44.87509" lon="5.72232">
        <ele>698</ele>
        <time>2019-10-27T21:19:32Z</time>
      </trkpt>
      <trkpt lat="44.87464" lon="5.72239">
        <ele>686</ele>
        <time>2019-10-27T21:19:42Z</time>
      </trkpt>
      <trkpt lat="44.87431" lon="5.72225">
        <ele>683</ele>
        <time>2019-10-27T21:19:50Z</time>
      </trkpt>
      <trkpt lat="44.87419" lon="5.72249">
        <ele>681</ele>
        <time>2019-10-27T21:19:55Z</time>
      </trkpt>
      <trkpt lat="44.87412" lon="5.72249">
        <ele>680</ele>
        <time>2019-10-27T21:19:57Z</time>
      </trkpt>
      <trkpt lat="44.87417" lon="5.72213">
        <ele>683</ele>
        <time>2019-10-27T21:20:03Z</time>
      </trkpt>
      <trkpt lat="44.87394" lon="5.722">
        <ele>674</ele>
        <time>2019-10-27T21:20:09Z</time>
      </trkpt>
      <trkpt lat="44.8729" lon="5.72162">
        <ele>658</ele>
        <time>2019-10-27T21:20:34Z</time>
      </trkpt>
      <trkpt lat="44.87278" lon="5.72188">
        <ele>660</ele>
        <time>2019-10-27T21:20:39Z</time>
      </trkpt>
      <trkpt lat="44.87233" lon="5.72245">
        <ele>654</ele>
        <time>2019-10-27T21:20:53Z</time>
      </trkpt>
      <trkpt lat="44.87223" lon="5.72263">
        <ele>655</ele>
        <time>2019-10-27T21:20:57Z</time>
      </trkpt>
      <trkpt lat="44.87183" lon="5.72423">
        <ele>655</ele>
        <time>2019-10-27T21:21:25Z</time>
      </trkpt>
      <trkpt lat="44.8718" lon="5.72503">
        <ele>654</ele>
        <time>2019-10-27T21:21:38Z</time>
      </trkpt>
      <trkpt lat="44.8719" lon="5.72617">
        <ele>647</ele>
        <time>2019-10-27T21:21:57Z</time>
      </trkpt>
      <trkpt lat="44.87197" lon="5.72647">
        <ele>646</ele>
        <time>2019-10-27T21:22:02Z</time>
      </trkpt>
      <trkpt lat="44.87215" lon="5.72682">
        <ele>642</ele>
        <time>2019-10-27T21:22:10Z</time>
      </trkpt>
      <trkpt lat="44.87242" lon="5.72713">
        <ele>641</ele>
        <time>2019-10-27T21:22:18Z</time>
      </trkpt>
      <trkpt lat="44.87282" lon="5.72717">
        <ele>648</ele>
        <time>2019-10-27T21:22:27Z</time>
      </trkpt>
      <trkpt lat="44.87305" lon="5.7273">
        <ele>649</ele>
        <time>2019-10-27T21:22:33Z</time>
      </trkpt>
      <trkpt lat="44.87337" lon="5.72775">
        <ele>650</ele>
        <time>2019-10-27T21:22:43Z</time>
      </trkpt>
      <trkpt lat="44.8735" lon="5.72842">
        <ele>648</ele>
        <time>2019-10-27T21:22:55Z</time>
      </trkpt>
      <trkpt lat="44.87343" lon="5.72895">
        <ele>649</ele>
        <time>2019-10-27T21:23:04Z</time>
      </trkpt>
      <trkpt lat="44.87325" lon="5.72922">
        <ele>634</ele>
        <time>2019-10-27T21:23:10Z</time>
      </trkpt>
      <trkpt lat="44.87323" lon="5.72932">
        <ele>630</ele>
        <time>2019-10-27T21:23:12Z</time>
      </trkpt>
      <trkpt lat="44.87402" lon="5.73032">
        <ele>640</ele>
        <time>2019-10-27T21:23:36Z</time>
      </trkpt>
      <trkpt lat="44.87442" lon="5.73067">
        <ele>648</ele>
        <time>2019-10-27T21:23:47Z</time>
      </trkpt>
      <trkpt lat="44.87465" lon="5.73097">
        <ele>641</ele>
        <time>2019-10-27T21:23:55Z</time>
      </trkpt>
      <trkpt lat="44.8747" lon="5.73112">
        <ele>641</ele>
        <time>2019-10-27T21:23:57Z</time>
      </trkpt>
      <trkpt lat="44.87463" lon="5.73123">
        <ele>640</ele>
        <time>2019-10-27T21:24:00Z</time>
      </trkpt>
      <trkpt lat="44.87462" lon="5.7313">
        <ele>640</ele>
        <time>2019-10-27T21:24:01Z</time>
      </trkpt>
      <trkpt lat="44.87453" lon="5.73142">
        <ele>640</ele>
        <time>2019-10-27T21:24:04Z</time>
      </trkpt>
      <trkpt lat="44.87405" lon="5.73167">
        <ele>643</ele>
        <time>2019-10-27T21:24:16Z</time>
      </trkpt>
      <trkpt lat="44.87385" lon="5.7317">
        <ele>644</ele>
        <time>2019-10-27T21:24:21Z</time>
      </trkpt>
      <trkpt lat="44.8736" lon="5.73168">
        <ele>642</ele>
        <time>2019-10-27T21:24:26Z</time>
      </trkpt>
      <trkpt lat="44.87347" lon="5.73173">
        <ele>641</ele>
        <time>2019-10-27T21:24:30Z</time>
      </trkpt>
      <trkpt lat="44.8731" lon="5.73192">
        <ele>638</ele>
        <time>2019-10-27T21:24:39Z</time>
      </trkpt>
      <trkpt lat="44.87278" lon="5.73232">
        <ele>639</ele>
        <time>2019-10-27T21:24:49Z</time>
      </trkpt>
      <trkpt lat="44.87243" lon="5.73235">
        <ele>636</ele>
        <time>2019-10-27T21:24:57Z</time>
      </trkpt>
      <trkpt lat="44.87222" lon="5.73245">
        <ele>635</ele>
        <time>2019-10-27T21:25:02Z</time>
      </trkpt>
      <trkpt lat="44.87198" lon="5.73268">
        <ele>644</ele>
        <time>2019-10-27T21:25:09Z</time>
      </trkpt>
      <trkpt lat="44.87178" lon="5.73297">
        <ele>646</ele>
        <time>2019-10-27T21:25:16Z</time>
      </trkpt>
      <trkpt lat="44.87168" lon="5.73315">
        <ele>648</ele>
        <time>2019-10-27T21:25:19Z</time>
      </trkpt>
      <trkpt lat="44.87155" lon="5.73348">
        <ele>648</ele>
        <time>2019-10-27T21:25:26Z</time>
      </trkpt>
      <trkpt lat="44.87153" lon="5.73367">
        <ele>647</ele>
        <time>2019-10-27T21:25:29Z</time>
      </trkpt>
      <trkpt lat="44.87168" lon="5.73392">
        <ele>655</ele>
        <time>2019-10-27T21:25:34Z</time>
      </trkpt>
      <trkpt lat="44.87173" lon="5.73392">
        <ele>655</ele>
        <time>2019-10-27T21:25:35Z</time>
      </trkpt>
      <trkpt lat="44.8718" lon="5.73387">
        <ele>655</ele>
        <time>2019-10-27T21:25:37Z</time>
      </trkpt>
      <trkpt lat="44.87193" lon="5.73388">
        <ele>656</ele>
        <time>2019-10-27T21:25:40Z</time>
      </trkpt>
      <trkpt lat="44.87235" lon="5.73383">
        <ele>657</ele>
        <time>2019-10-27T21:25:50Z</time>
      </trkpt>
      <trkpt lat="44.87267" lon="5.73398">
        <ele>663</ele>
        <time>2019-10-27T21:25:58Z</time>
      </trkpt>
      <trkpt lat="44.87315" lon="5.73428">
        <ele>670</ele>
        <time>2019-10-27T21:26:10Z</time>
      </trkpt>
      <trkpt lat="44.87348" lon="5.73438">
        <ele>675</ele>
        <time>2019-10-27T21:26:18Z</time>
      </trkpt>
      <trkpt lat="44.8739" lon="5.73475">
        <ele>679</ele>
        <time>2019-10-27T21:26:30Z</time>
      </trkpt>
      <trkpt lat="44.87397" lon="5.73497">
        <ele>681</ele>
        <time>2019-10-27T21:26:34Z</time>
      </trkpt>
      <trkpt lat="44.87397" lon="5.735">
        <ele>681</ele>
        <time>2019-10-27T21:26:34Z</time>
      </trkpt>
      <trkpt lat="44.8734" lon="5.7358">
        <ele>688</ele>
        <time>2019-10-27T21:26:53Z</time>
      </trkpt>
      <trkpt lat="44.87318" lon="5.73617">
        <ele>686</ele>
        <time>2019-10-27T21:27:01Z</time>
      </trkpt>
      <trkpt lat="44.87305" lon="5.73647">
        <ele>687</ele>
        <time>2019-10-27T21:27:07Z</time>
      </trkpt>
      <trkpt lat="44.87291" lon="5.73709">
        <ele>692</ele>
        <time>2019-10-27T21:27:18Z</time>
      </trkpt>
      <trkpt lat="44.87279" lon="5.73803">
        <ele>698</ele>
        <time>2019-10-27T21:27:33Z</time>
      </trkpt>
      <trkpt lat="44.87268" lon="5.73921">
        <ele>706</ele>
        <time>2019-10-27T21:27:53Z</time>
      </trkpt>
      <trkpt lat="44.87264" lon="5.74007">
        <ele>709</ele>
        <time>2019-10-27T21:28:07Z</time>
      </trkpt>
      <trkpt lat="44.87267" lon="5.74065">
        <ele>710</ele>
        <time>2019-10-27T21:28:17Z</time>
      </trkpt>
      <trkpt lat="44.87279" lon="5.74181">
        <ele>712</ele>
        <time>2019-10-27T21:28:36Z</time>
      </trkpt>
      <trkpt lat="44.87294" lon="5.74224">
        <ele>714</ele>
        <time>2019-10-27T21:28:44Z</time>
      </trkpt>
      <trkpt lat="44.8732" lon="5.7426">
        <ele>714</ele>
        <time>2019-10-27T21:28:53Z</time>
      </trkpt>
      <trkpt lat="44.87358" lon="5.74278">
        <ele>723</ele>
        <time>2019-10-27T21:29:02Z</time>
      </trkpt>
      <trkpt lat="44.87384" lon="5.7428">
        <ele>726</ele>
        <time>2019-10-27T21:29:08Z</time>
      </trkpt>
      <trkpt lat="44.87407" lon="5.74293">
        <ele>727</ele>
        <time>2019-10-27T21:29:14Z</time>
      </trkpt>
      <trkpt lat="44.87417" lon="5.74329">
        <ele>732</ele>
        <time>2019-10-27T21:29:20Z</time>
      </trkpt>
      <trkpt lat="44.87401" lon="5.74385">
        <ele>727</ele>
        <time>2019-10-27T21:29:30Z</time>
      </trkpt>
      <trkpt lat="44.8737" lon="5.74432">
        <ele>728</ele>
        <time>2019-10-27T21:29:41Z</time>
      </trkpt>
      <trkpt lat="44.87361" lon="5.74475">
        <ele>729</ele>
        <time>2019-10-27T21:29:48Z</time>
      </trkpt>
      <trkpt lat="44.87386" lon="5.74611">
        <ele>734</ele>
        <time>2019-10-27T21:30:12Z</time>
      </trkpt>
      <trkpt lat="44.87394" lon="5.74589">
        <ele>739</ele>
        <time>2019-10-27T21:30:16Z</time>
      </trkpt>
      <trkpt lat="44.87389" lon="5.74537">
        <ele>739</ele>
        <time>2019-10-27T21:30:25Z</time>
      </trkpt>
      <trkpt lat="44.87401" lon="5.74476">
        <ele>740</ele>
        <time>2019-10-27T21:30:35Z</time>
      </trkpt>
      <trkpt lat="44.87447" lon="5.74426">
        <ele>760</ele>
        <time>2019-10-27T21:30:49Z</time>
      </trkpt>
      <trkpt lat="44.87558" lon="5.74328">
        <ele>770</ele>
        <time>2019-10-27T21:31:19Z</time>
      </trkpt>
      <trkpt lat="44.87599" lon="5.74281">
        <ele>783</ele>
        <time>2019-10-27T21:31:31Z</time>
      </trkpt>
      <trkpt lat="44.87666" lon="5.74188">
        <ele>783</ele>
        <time>2019-10-27T21:31:53Z</time>
      </trkpt>
      <trkpt lat="44.87678" lon="5.74087">
        <ele>790</ele>
        <time>2019-10-27T21:32:10Z</time>
      </trkpt>
      <trkpt lat="44.87696" lon="5.74079">
        <ele>789</ele>
        <time>2019-10-27T21:32:15Z</time>
      </trkpt>
      <trkpt lat="44.87732" lon="5.74124">
        <ele>794</ele>
        <time>2019-10-27T21:32:26Z</time>
      </trkpt>
      <trkpt lat="44.87777" lon="5.74159">
        <ele>803</ele>
        <time>2019-10-27T21:32:38Z</time>
      </trkpt>
      <trkpt lat="44.87816" lon="5.74166">
        <ele>809</ele>
        <time>2019-10-27T21:32:47Z</time>
      </trkpt>
      <trkpt lat="44.87843" lon="5.74159">
        <ele>815</ele>
        <time>2019-10-27T21:32:54Z</time>
      </trkpt>
      <trkpt lat="44.87893" lon="5.74135">
        <ele>818</ele>
        <time>2019-10-27T21:33:06Z</time>
      </trkpt>
      <trkpt lat="44.87891" lon="5.74153">
        <ele>820</ele>
        <time>2019-10-27T21:33:09Z</time>
      </trkpt>
      <trkpt lat="44.87856" lon="5.74213">
        <ele>828</ele>
        <time>2019-10-27T21:33:22Z</time>
      </trkpt>
      <trkpt lat="44.87883" lon="5.74229">
        <ele>833</ele>
        <time>2019-10-27T21:33:29Z</time>
      </trkpt>
    </trkseg>
  </trk>
</gpx>